<?xml version="1.0" encoding="UTF-8"?>
<gpx xmlns="http://www.topografix.com/GPX/1/1" xmlns:xsi="http://www.w3.org/2001/XMLSchema-instance" version="1.1" xsi:schemaLocation="http://www.topografix.com/GPX/1/1 http://www.topografix.com/GPX/1/1/gpx.xsd">
  <metadata>
    <name>Aquabike Standard Distance World Championships 2023 Pontevedra</name>
  </metadata>
  <trk>
    <name>Aquabike Standard Distance World Championships 2023 Pontevedra</name>
    <trkseg>
      <trkpt lat="42.432143" lon="-8.63548">
        <ele>7.177743</ele>
        <time>2023-09-24T11:10:00.000Z</time>
      </trkpt>
      <trkpt lat="42.43238" lon="-8.635712">
        <ele>7.177734</ele>
        <time>2023-09-24T11:10:03.000Z</time>
      </trkpt>
      <trkpt lat="42.432628" lon="-8.635848">
        <ele>7.177743</ele>
        <time>2023-09-24T11:10:06.000Z</time>
      </trkpt>
      <trkpt lat="42.433043" lon="-8.636081">
        <ele>6.973103</ele>
        <time>2023-09-24T11:10:11.000Z</time>
      </trkpt>
      <trkpt lat="42.433134" lon="-8.636095">
        <ele>6.824523</ele>
        <time>2023-09-24T11:10:12.000Z</time>
      </trkpt>
      <trkpt lat="42.433207" lon="-8.636126">
        <ele>6.698608</ele>
        <time>2023-09-24T11:10:13.000Z</time>
      </trkpt>
      <trkpt lat="42.433399" lon="-8.636204">
        <ele>6.36335</ele>
        <time>2023-09-24T11:10:15.000Z</time>
      </trkpt>
      <trkpt lat="42.433454" lon="-8.636198">
        <ele>6.268092</ele>
        <time>2023-09-24T11:10:16.000Z</time>
      </trkpt>
      <trkpt lat="42.433603" lon="-8.636229">
        <ele>6.010849</ele>
        <time>2023-09-24T11:10:18.000Z</time>
      </trkpt>
      <trkpt lat="42.433908" lon="-8.636278">
        <ele>5.509455</ele>
        <time>2023-09-24T11:10:21.000Z</time>
      </trkpt>
      <trkpt lat="42.434247" lon="-8.636432">
        <ele>4.930377</ele>
        <time>2023-09-24T11:10:25.000Z</time>
      </trkpt>
      <trkpt lat="42.435064" lon="-8.636597">
        <ele>4.261968</ele>
        <time>2023-09-24T11:10:34.000Z</time>
      </trkpt>
      <trkpt lat="42.435089" lon="-8.636605">
        <ele>4.267553</ele>
        <time>2023-09-24T11:10:34.000Z</time>
      </trkpt>
      <trkpt lat="42.435182" lon="-8.636606">
        <ele>4.284314</ele>
        <time>2023-09-24T11:10:35.000Z</time>
      </trkpt>
      <trkpt lat="42.435258" lon="-8.636525">
        <ele>4.300697</ele>
        <time>2023-09-24T11:10:36.000Z</time>
      </trkpt>
      <trkpt lat="42.435304" lon="-8.636516">
        <ele>4.309175</ele>
        <time>2023-09-24T11:10:37.000Z</time>
      </trkpt>
      <trkpt lat="42.43536" lon="-8.636512">
        <ele>4.317869</ele>
        <time>2023-09-24T11:10:38.000Z</time>
      </trkpt>
      <trkpt lat="42.435435" lon="-8.636582">
        <ele>4.33518</ele>
        <time>2023-09-24T11:10:39.000Z</time>
      </trkpt>
      <trkpt lat="42.435459" lon="-8.63671">
        <ele>4.352527</ele>
        <time>2023-09-24T11:10:40.000Z</time>
      </trkpt>
      <trkpt lat="42.43545" lon="-8.636778">
        <ele>4.36165</ele>
        <time>2023-09-24T11:10:41.000Z</time>
      </trkpt>
      <trkpt lat="42.435402" lon="-8.636885">
        <ele>4.379828</ele>
        <time>2023-09-24T11:10:42.000Z</time>
      </trkpt>
      <trkpt lat="42.435284" lon="-8.636909">
        <ele>4.399195</ele>
        <time>2023-09-24T11:10:43.000Z</time>
      </trkpt>
      <trkpt lat="42.435201" lon="-8.637196">
        <ele>4.44084</ele>
        <time>2023-09-24T11:10:46.000Z</time>
      </trkpt>
      <trkpt lat="42.435024" lon="-8.637929">
        <ele>4.607616</ele>
        <time>2023-09-24T11:10:52.000Z</time>
      </trkpt>
      <trkpt lat="42.435016" lon="-8.637949">
        <ele>4.611481</ele>
        <time>2023-09-24T11:10:52.000Z</time>
      </trkpt>
      <trkpt lat="42.434868" lon="-8.638547">
        <ele>4.905842</ele>
        <time>2023-09-24T11:10:57.000Z</time>
      </trkpt>
      <trkpt lat="42.434855" lon="-8.638901">
        <ele>5.068518</ele>
        <time>2023-09-24T11:11:00.000Z</time>
      </trkpt>
      <trkpt lat="42.434872" lon="-8.639485">
        <ele>5.334772</ele>
        <time>2023-09-24T11:11:05.000Z</time>
      </trkpt>
      <trkpt lat="42.434951" lon="-8.639959">
        <ele>5.561251</ele>
        <time>2023-09-24T11:11:09.000Z</time>
      </trkpt>
      <trkpt lat="42.435172" lon="-8.641107">
        <ele>5.302401</ele>
        <time>2023-09-24T11:11:19.000Z</time>
      </trkpt>
      <trkpt lat="42.435209" lon="-8.641204">
        <ele>5.262178</ele>
        <time>2023-09-24T11:11:20.000Z</time>
      </trkpt>
      <trkpt lat="42.435247" lon="-8.641232">
        <ele>5.248951</ele>
        <time>2023-09-24T11:11:20.000Z</time>
      </trkpt>
      <trkpt lat="42.435325" lon="-8.641316">
        <ele>5.20027</ele>
        <time>2023-09-24T11:11:21.000Z</time>
      </trkpt>
      <trkpt lat="42.435574" lon="-8.641338">
        <ele>5.09509</ele>
        <time>2023-09-24T11:11:24.000Z</time>
      </trkpt>
      <trkpt lat="42.435801" lon="-8.64123">
        <ele>4.989299</ele>
        <time>2023-09-24T11:11:27.000Z</time>
      </trkpt>
      <trkpt lat="42.435937" lon="-8.64116">
        <ele>4.924317</ele>
        <time>2023-09-24T11:11:29.000Z</time>
      </trkpt>
      <trkpt lat="42.435947" lon="-8.641152">
        <ele>4.921097</ele>
        <time>2023-09-24T11:11:29.000Z</time>
      </trkpt>
      <trkpt lat="42.435991" lon="-8.641142">
        <ele>4.899263</ele>
        <time>2023-09-24T11:11:29.000Z</time>
      </trkpt>
      <trkpt lat="42.436021" lon="-8.641065">
        <ele>4.873579</ele>
        <time>2023-09-24T11:11:30.000Z</time>
      </trkpt>
      <trkpt lat="42.436082" lon="-8.641041">
        <ele>4.8482</ele>
        <time>2023-09-24T11:11:31.000Z</time>
      </trkpt>
      <trkpt lat="42.436142" lon="-8.641046">
        <ele>4.851151</ele>
        <time>2023-09-24T11:11:32.000Z</time>
      </trkpt>
      <trkpt lat="42.436183" lon="-8.641066">
        <ele>4.858288</ele>
        <time>2023-09-24T11:11:32.000Z</time>
      </trkpt>
      <trkpt lat="42.436436" lon="-8.640958">
        <ele>4.88992</ele>
        <time>2023-09-24T11:11:35.000Z</time>
      </trkpt>
      <trkpt lat="42.436462" lon="-8.640934">
        <ele>4.894385</ele>
        <time>2023-09-24T11:11:35.000Z</time>
      </trkpt>
      <trkpt lat="42.437123" lon="-8.640534">
        <ele>4.983352</ele>
        <time>2023-09-24T11:11:43.000Z</time>
      </trkpt>
      <trkpt lat="42.43721" lon="-8.640396">
        <ele>4.999656</ele>
        <time>2023-09-24T11:11:44.000Z</time>
      </trkpt>
      <trkpt lat="42.437219" lon="-8.640302">
        <ele>5.007719</ele>
        <time>2023-09-24T11:11:45.000Z</time>
      </trkpt>
      <trkpt lat="42.437213" lon="-8.640114">
        <ele>5.026134</ele>
        <time>2023-09-24T11:11:47.000Z</time>
      </trkpt>
      <trkpt lat="42.437199" lon="-8.640068">
        <ele>5.02976</ele>
        <time>2023-09-24T11:11:47.000Z</time>
      </trkpt>
      <trkpt lat="42.437239" lon="-8.640044">
        <ele>5.034151</ele>
        <time>2023-09-24T11:11:47.000Z</time>
      </trkpt>
      <trkpt lat="42.437382" lon="-8.640265">
        <ele>5.06274</ele>
        <time>2023-09-24T11:11:49.000Z</time>
      </trkpt>
      <trkpt lat="42.43742" lon="-8.640296">
        <ele>5.067487</ele>
        <time>2023-09-24T11:11:49.000Z</time>
      </trkpt>
      <trkpt lat="42.437495" lon="-8.640309">
        <ele>5.108398</ele>
        <time>2023-09-24T11:11:50.000Z</time>
      </trkpt>
      <trkpt lat="42.437543" lon="-8.640338">
        <ele>5.126471</ele>
        <time>2023-09-24T11:11:51.000Z</time>
      </trkpt>
      <trkpt lat="42.43754" lon="-8.640336">
        <ele>5.126466</ele>
        <time>2023-09-24T11:11:51.000Z</time>
      </trkpt>
      <trkpt lat="42.437711" lon="-8.640315">
        <ele>5.213762</ele>
        <time>2023-09-24T11:11:53.000Z</time>
      </trkpt>
      <trkpt lat="42.437714" lon="-8.640305">
        <ele>5.213771</ele>
        <time>2023-09-24T11:11:53.000Z</time>
      </trkpt>
      <trkpt lat="42.438369" lon="-8.639989">
        <ele>5.545853</ele>
        <time>2023-09-24T11:12:01.000Z</time>
      </trkpt>
      <trkpt lat="42.439013" lon="-8.639664">
        <ele>5.878275</ele>
        <time>2023-09-24T11:12:09.000Z</time>
      </trkpt>
      <trkpt lat="42.43967" lon="-8.63933">
        <ele>6.850597</ele>
        <time>2023-09-24T11:12:17.000Z</time>
      </trkpt>
      <trkpt lat="42.440103" lon="-8.639054">
        <ele>7.603482</ele>
        <time>2023-09-24T11:12:22.000Z</time>
      </trkpt>
      <trkpt lat="42.440527" lon="-8.638768">
        <ele>8.356883</ele>
        <time>2023-09-24T11:12:27.000Z</time>
      </trkpt>
      <trkpt lat="42.441258" lon="-8.638156">
        <ele>9.415498</ele>
        <time>2023-09-24T11:12:37.000Z</time>
      </trkpt>
      <trkpt lat="42.441991" lon="-8.637464">
        <ele>10.395525</ele>
        <time>2023-09-24T11:12:47.000Z</time>
      </trkpt>
      <trkpt lat="42.442723" lon="-8.63678">
        <ele>11.650121</ele>
        <time>2023-09-24T11:12:57.000Z</time>
      </trkpt>
      <trkpt lat="42.443231" lon="-8.636389">
        <ele>12.567202</ele>
        <time>2023-09-24T11:13:03.000Z</time>
      </trkpt>
      <trkpt lat="42.444034" lon="-8.635982">
        <ele>14.968785</ele>
        <time>2023-09-24T11:13:13.000Z</time>
      </trkpt>
      <trkpt lat="42.444548" lon="-8.635821">
        <ele>18.226719</ele>
        <time>2023-09-24T11:13:19.000Z</time>
      </trkpt>
      <trkpt lat="42.445011" lon="-8.635768">
        <ele>21.051116</ele>
        <time>2023-09-24T11:13:24.000Z</time>
      </trkpt>
      <trkpt lat="42.445015" lon="-8.635755">
        <ele>21.051122</ele>
        <time>2023-09-24T11:13:24.000Z</time>
      </trkpt>
      <trkpt lat="42.445665" lon="-8.63585">
        <ele>24.960995</ele>
        <time>2023-09-24T11:13:31.000Z</time>
      </trkpt>
      <trkpt lat="42.446094" lon="-8.636052">
        <ele>27.650374</ele>
        <time>2023-09-24T11:13:36.000Z</time>
      </trkpt>
      <trkpt lat="42.446347" lon="-8.636242">
        <ele>29.281316</ele>
        <time>2023-09-24T11:13:39.000Z</time>
      </trkpt>
      <trkpt lat="42.446896" lon="-8.636595">
        <ele>32.774411</ele>
        <time>2023-09-24T11:13:46.000Z</time>
      </trkpt>
      <trkpt lat="42.447177" lon="-8.63674">
        <ele>34.528281</ele>
        <time>2023-09-24T11:13:49.000Z</time>
      </trkpt>
      <trkpt lat="42.44753" lon="-8.636822">
        <ele>35.125288</ele>
        <time>2023-09-24T11:13:53.000Z</time>
      </trkpt>
      <trkpt lat="42.448119" lon="-8.636733">
        <ele>35.716884</ele>
        <time>2023-09-24T11:14:00.000Z</time>
      </trkpt>
      <trkpt lat="42.449095" lon="-8.636353">
        <ele>36.476883</ele>
        <time>2023-09-24T11:14:11.000Z</time>
      </trkpt>
      <trkpt lat="42.449602" lon="-8.636293">
        <ele>35.815542</ele>
        <time>2023-09-24T11:14:17.000Z</time>
      </trkpt>
      <trkpt lat="42.449885" lon="-8.636315">
        <ele>35.42715</ele>
        <time>2023-09-24T11:14:20.000Z</time>
      </trkpt>
      <trkpt lat="42.450324" lon="-8.636457">
        <ele>34.8389</ele>
        <time>2023-09-24T11:14:25.000Z</time>
      </trkpt>
      <trkpt lat="42.450521" lon="-8.636572">
        <ele>34.552894</ele>
        <time>2023-09-24T11:14:27.000Z</time>
      </trkpt>
      <trkpt lat="42.450837" lon="-8.636879">
        <ele>33.993197</ele>
        <time>2023-09-24T11:14:31.000Z</time>
      </trkpt>
      <trkpt lat="42.450985" lon="-8.637098">
        <ele>33.612844</ele>
        <time>2023-09-24T11:14:33.000Z</time>
      </trkpt>
      <trkpt lat="42.451082" lon="-8.637299">
        <ele>33.326599</ele>
        <time>2023-09-24T11:14:35.000Z</time>
      </trkpt>
      <trkpt lat="42.451133" lon="-8.637389">
        <ele>33.173037</ele>
        <time>2023-09-24T11:14:36.000Z</time>
      </trkpt>
      <trkpt lat="42.451167" lon="-8.637402">
        <ele>33.125243</ele>
        <time>2023-09-24T11:14:36.000Z</time>
      </trkpt>
      <trkpt lat="42.451212" lon="-8.637467">
        <ele>33.007704</ele>
        <time>2023-09-24T11:14:37.000Z</time>
      </trkpt>
      <trkpt lat="42.451258" lon="-8.637639">
        <ele>32.795562</ele>
        <time>2023-09-24T11:14:39.000Z</time>
      </trkpt>
      <trkpt lat="42.451352" lon="-8.637811">
        <ele>32.529506</ele>
        <time>2023-09-24T11:14:41.000Z</time>
      </trkpt>
      <trkpt lat="42.451753" lon="-8.638202">
        <ele>31.721591</ele>
        <time>2023-09-24T11:14:46.000Z</time>
      </trkpt>
      <trkpt lat="42.452313" lon="-8.638527">
        <ele>31.687117</ele>
        <time>2023-09-24T11:14:53.000Z</time>
      </trkpt>
      <trkpt lat="42.453598" lon="-8.639067">
        <ele>33.484388</ele>
        <time>2023-09-24T11:15:08.000Z</time>
      </trkpt>
      <trkpt lat="42.45459" lon="-8.639452">
        <ele>34.066732</ele>
        <time>2023-09-24T11:15:19.000Z</time>
      </trkpt>
      <trkpt lat="42.455311" lon="-8.639611">
        <ele>34.40772</ele>
        <time>2023-09-24T11:15:27.000Z</time>
      </trkpt>
      <trkpt lat="42.457669" lon="-8.640047">
        <ele>32.792862</ele>
        <time>2023-09-24T11:15:53.000Z</time>
      </trkpt>
      <trkpt lat="42.458667" lon="-8.640234">
        <ele>33.061192</ele>
        <time>2023-09-24T11:16:04.000Z</time>
      </trkpt>
      <trkpt lat="42.460175" lon="-8.640981">
        <ele>34.887043</ele>
        <time>2023-09-24T11:16:22.000Z</time>
      </trkpt>
      <trkpt lat="42.460172" lon="-8.640977">
        <ele>34.891723</ele>
        <time>2023-09-24T11:16:22.000Z</time>
      </trkpt>
      <trkpt lat="42.461656" lon="-8.6417">
        <ele>38.335004</ele>
        <time>2023-09-24T11:16:40.000Z</time>
      </trkpt>
      <trkpt lat="42.462335" lon="-8.642041">
        <ele>40.269808</ele>
        <time>2023-09-24T11:16:48.000Z</time>
      </trkpt>
      <trkpt lat="42.462565" lon="-8.64211">
        <ele>40.810297</ele>
        <time>2023-09-24T11:16:51.000Z</time>
      </trkpt>
      <trkpt lat="42.462803" lon="-8.642152">
        <ele>41.398097</ele>
        <time>2023-09-24T11:16:54.000Z</time>
      </trkpt>
      <trkpt lat="42.463964" lon="-8.642246">
        <ele>44.169429</ele>
        <time>2023-09-24T11:17:07.000Z</time>
      </trkpt>
      <trkpt lat="42.464486" lon="-8.642349">
        <ele>45.213796</ele>
        <time>2023-09-24T11:17:13.000Z</time>
      </trkpt>
      <trkpt lat="42.465143" lon="-8.642429">
        <ele>46.351597</ele>
        <time>2023-09-24T11:17:20.000Z</time>
      </trkpt>
      <trkpt lat="42.465452" lon="-8.642562">
        <ele>46.890488</ele>
        <time>2023-09-24T11:17:24.000Z</time>
      </trkpt>
      <trkpt lat="42.465782" lon="-8.64254">
        <ele>47.47187</ele>
        <time>2023-09-24T11:17:28.000Z</time>
      </trkpt>
      <trkpt lat="42.466291" lon="-8.642627">
        <ele>49.033725</ele>
        <time>2023-09-24T11:17:34.000Z</time>
      </trkpt>
      <trkpt lat="42.466688" lon="-8.642734">
        <ele>50.634562</ele>
        <time>2023-09-24T11:17:39.000Z</time>
      </trkpt>
      <trkpt lat="42.468018" lon="-8.642939">
        <ele>55.62808</ele>
        <time>2023-09-24T11:17:54.000Z</time>
      </trkpt>
      <trkpt lat="42.468162" lon="-8.64297">
        <ele>56.066178</ele>
        <time>2023-09-24T11:17:56.000Z</time>
      </trkpt>
      <trkpt lat="42.468464" lon="-8.642995">
        <ele>57.072902</ele>
        <time>2023-09-24T11:17:59.000Z</time>
      </trkpt>
      <trkpt lat="42.468567" lon="-8.64296">
        <ele>57.399253</ele>
        <time>2023-09-24T11:18:00.000Z</time>
      </trkpt>
      <trkpt lat="42.468793" lon="-8.642849">
        <ele>58.168082</ele>
        <time>2023-09-24T11:18:03.000Z</time>
      </trkpt>
      <trkpt lat="42.468984" lon="-8.642643">
        <ele>58.965491</ele>
        <time>2023-09-24T11:18:06.000Z</time>
      </trkpt>
      <trkpt lat="42.46917" lon="-8.642365">
        <ele>59.847459</ele>
        <time>2023-09-24T11:18:09.000Z</time>
      </trkpt>
      <trkpt lat="42.469298" lon="-8.642099">
        <ele>60.546258</ele>
        <time>2023-09-24T11:18:12.000Z</time>
      </trkpt>
      <trkpt lat="42.469746" lon="-8.641073">
        <ele>61.653104</ele>
        <time>2023-09-24T11:18:22.000Z</time>
      </trkpt>
      <trkpt lat="42.469877" lon="-8.640841">
        <ele>61.935163</ele>
        <time>2023-09-24T11:18:24.000Z</time>
      </trkpt>
      <trkpt lat="42.470108" lon="-8.640404">
        <ele>62.434392</ele>
        <time>2023-09-24T11:18:28.000Z</time>
      </trkpt>
      <trkpt lat="42.470433" lon="-8.639764">
        <ele>62.363382</ele>
        <time>2023-09-24T11:18:34.000Z</time>
      </trkpt>
      <trkpt lat="42.470666" lon="-8.639251">
        <ele>61.701913</ele>
        <time>2023-09-24T11:18:39.000Z</time>
      </trkpt>
      <trkpt lat="42.470792" lon="-8.638979">
        <ele>61.352293</ele>
        <time>2023-09-24T11:18:42.000Z</time>
      </trkpt>
      <trkpt lat="42.470999" lon="-8.638637">
        <ele>60.853561</ele>
        <time>2023-09-24T11:18:46.000Z</time>
      </trkpt>
      <trkpt lat="42.471132" lon="-8.638516">
        <ele>60.624404</ele>
        <time>2023-09-24T11:18:48.000Z</time>
      </trkpt>
      <trkpt lat="42.471139" lon="-8.638511">
        <ele>60.615751</ele>
        <time>2023-09-24T11:18:48.000Z</time>
      </trkpt>
      <trkpt lat="42.471276" lon="-8.638388">
        <ele>60.381055</ele>
        <time>2023-09-24T11:18:50.000Z</time>
      </trkpt>
      <trkpt lat="42.471624" lon="-8.638186">
        <ele>59.576346</ele>
        <time>2023-09-24T11:18:54.000Z</time>
      </trkpt>
      <trkpt lat="42.47185" lon="-8.638136">
        <ele>58.971859</ele>
        <time>2023-09-24T11:18:57.000Z</time>
      </trkpt>
      <trkpt lat="42.471943" lon="-8.638122">
        <ele>58.748356</ele>
        <time>2023-09-24T11:18:58.000Z</time>
      </trkpt>
      <trkpt lat="42.472193" lon="-8.638166">
        <ele>58.073767</ele>
        <time>2023-09-24T11:19:01.000Z</time>
      </trkpt>
      <trkpt lat="42.472262" lon="-8.638173">
        <ele>57.902406</ele>
        <time>2023-09-24T11:19:02.000Z</time>
      </trkpt>
      <trkpt lat="42.472523" lon="-8.63828">
        <ele>57.189617</ele>
        <time>2023-09-24T11:19:05.000Z</time>
      </trkpt>
      <trkpt lat="42.472762" lon="-8.638456">
        <ele>56.494368</ele>
        <time>2023-09-24T11:19:08.000Z</time>
      </trkpt>
      <trkpt lat="42.472992" lon="-8.638709">
        <ele>55.74996</ele>
        <time>2023-09-24T11:19:11.000Z</time>
      </trkpt>
      <trkpt lat="42.473155" lon="-8.638939">
        <ele>55.735123</ele>
        <time>2023-09-24T11:19:14.000Z</time>
      </trkpt>
      <trkpt lat="42.47324" lon="-8.639122">
        <ele>56.05491</ele>
        <time>2023-09-24T11:19:16.000Z</time>
      </trkpt>
      <trkpt lat="42.47334" lon="-8.639433">
        <ele>56.529312</ele>
        <time>2023-09-24T11:19:19.000Z</time>
      </trkpt>
      <trkpt lat="42.473431" lon="-8.639978">
        <ele>57.318692</ele>
        <time>2023-09-24T11:19:24.000Z</time>
      </trkpt>
      <trkpt lat="42.473451" lon="-8.640299">
        <ele>57.78131</ele>
        <time>2023-09-24T11:19:27.000Z</time>
      </trkpt>
      <trkpt lat="42.473463" lon="-8.640593">
        <ele>58.183026</ele>
        <time>2023-09-24T11:19:29.000Z</time>
      </trkpt>
      <trkpt lat="42.473577" lon="-8.641908">
        <ele>61.45171</ele>
        <time>2023-09-24T11:19:40.000Z</time>
      </trkpt>
      <trkpt lat="42.473804" lon="-8.642701">
        <ele>64.06655</ele>
        <time>2023-09-24T11:19:47.000Z</time>
      </trkpt>
      <trkpt lat="42.473828" lon="-8.642802">
        <ele>64.420395</ele>
        <time>2023-09-24T11:19:48.000Z</time>
      </trkpt>
      <trkpt lat="42.473867" lon="-8.642976">
        <ele>64.953218</ele>
        <time>2023-09-24T11:19:49.000Z</time>
      </trkpt>
      <trkpt lat="42.474239" lon="-8.644146">
        <ele>69.785188</ele>
        <time>2023-09-24T11:19:59.000Z</time>
      </trkpt>
      <trkpt lat="42.474411" lon="-8.644452">
        <ele>71.309884</ele>
        <time>2023-09-24T11:20:02.000Z</time>
      </trkpt>
      <trkpt lat="42.474466" lon="-8.644559">
        <ele>71.846952</ele>
        <time>2023-09-24T11:20:03.000Z</time>
      </trkpt>
      <trkpt lat="42.47477" lon="-8.644937">
        <ele>74.149225</ele>
        <time>2023-09-24T11:20:08.000Z</time>
      </trkpt>
      <trkpt lat="42.475022" lon="-8.645102">
        <ele>75.738046</ele>
        <time>2023-09-24T11:20:11.000Z</time>
      </trkpt>
      <trkpt lat="42.475283" lon="-8.645234">
        <ele>77.877964</ele>
        <time>2023-09-24T11:20:14.000Z</time>
      </trkpt>
      <trkpt lat="42.475708" lon="-8.645277">
        <ele>82.252495</ele>
        <time>2023-09-24T11:20:19.000Z</time>
      </trkpt>
      <trkpt lat="42.475775" lon="-8.645258">
        <ele>82.974024</ele>
        <time>2023-09-24T11:20:20.000Z</time>
      </trkpt>
      <trkpt lat="42.475796" lon="-8.645246">
        <ele>83.357104</ele>
        <time>2023-09-24T11:20:20.000Z</time>
      </trkpt>
      <trkpt lat="42.476062" lon="-8.645144">
        <ele>86.192835</ele>
        <time>2023-09-24T11:20:23.000Z</time>
      </trkpt>
      <trkpt lat="42.476087" lon="-8.645128">
        <ele>86.508965</ele>
        <time>2023-09-24T11:20:23.000Z</time>
      </trkpt>
      <trkpt lat="42.476491" lon="-8.644797">
        <ele>91.370009</ele>
        <time>2023-09-24T11:20:28.000Z</time>
      </trkpt>
      <trkpt lat="42.476605" lon="-8.644678">
        <ele>93.004721</ele>
        <time>2023-09-24T11:20:30.000Z</time>
      </trkpt>
      <trkpt lat="42.477486" lon="-8.643792">
        <ele>105.047458</ele>
        <time>2023-09-24T11:20:42.000Z</time>
      </trkpt>
      <trkpt lat="42.477541" lon="-8.643723">
        <ele>106.088906</ele>
        <time>2023-09-24T11:20:43.000Z</time>
      </trkpt>
      <trkpt lat="42.477904" lon="-8.643313">
        <ele>111.259477</ele>
        <time>2023-09-24T11:20:48.000Z</time>
      </trkpt>
      <trkpt lat="42.478617" lon="-8.642581">
        <ele>118.318455</ele>
        <time>2023-09-24T11:20:58.000Z</time>
      </trkpt>
      <trkpt lat="42.47888" lon="-8.642411">
        <ele>119.78467</ele>
        <time>2023-09-24T11:21:01.000Z</time>
      </trkpt>
      <trkpt lat="42.479185" lon="-8.642312">
        <ele>121.404091</ele>
        <time>2023-09-24T11:21:04.000Z</time>
      </trkpt>
      <trkpt lat="42.4797" lon="-8.642281">
        <ele>124.025954</ele>
        <time>2023-09-24T11:21:10.000Z</time>
      </trkpt>
      <trkpt lat="42.480253" lon="-8.642178">
        <ele>126.083752</ele>
        <time>2023-09-24T11:21:16.000Z</time>
      </trkpt>
      <trkpt lat="42.480627" lon="-8.641992">
        <ele>127.361089</ele>
        <time>2023-09-24T11:21:20.000Z</time>
      </trkpt>
      <trkpt lat="42.481205" lon="-8.641707">
        <ele>129.254211</ele>
        <time>2023-09-24T11:21:27.000Z</time>
      </trkpt>
      <trkpt lat="42.481616" lon="-8.641647">
        <ele>130.591133</ele>
        <time>2023-09-24T11:21:32.000Z</time>
      </trkpt>
      <trkpt lat="42.481867" lon="-8.641601">
        <ele>131.687142</ele>
        <time>2023-09-24T11:21:35.000Z</time>
      </trkpt>
      <trkpt lat="42.482237" lon="-8.641659">
        <ele>133.222331</ele>
        <time>2023-09-24T11:21:39.000Z</time>
      </trkpt>
      <trkpt lat="42.482492" lon="-8.641758">
        <ele>134.349442</ele>
        <time>2023-09-24T11:21:42.000Z</time>
      </trkpt>
      <trkpt lat="42.482694" lon="-8.641871">
        <ele>135.275831</ele>
        <time>2023-09-24T11:21:44.000Z</time>
      </trkpt>
      <trkpt lat="42.482987" lon="-8.6421">
        <ele>136.687159</ele>
        <time>2023-09-24T11:21:48.000Z</time>
      </trkpt>
      <trkpt lat="42.483199" lon="-8.642368">
        <ele>137.946944</ele>
        <time>2023-09-24T11:21:51.000Z</time>
      </trkpt>
      <trkpt lat="42.483269" lon="-8.642481">
        <ele>138.637839</ele>
        <time>2023-09-24T11:21:52.000Z</time>
      </trkpt>
      <trkpt lat="42.483284" lon="-8.642501">
        <ele>138.703823</ele>
        <time>2023-09-24T11:21:52.000Z</time>
      </trkpt>
      <trkpt lat="42.483714" lon="-8.642961">
        <ele>142.919185</ele>
        <time>2023-09-24T11:21:58.000Z</time>
      </trkpt>
      <trkpt lat="42.484105" lon="-8.643265">
        <ele>146.327363</ele>
        <time>2023-09-24T11:22:03.000Z</time>
      </trkpt>
      <trkpt lat="42.484661" lon="-8.643389">
        <ele>150.647988</ele>
        <time>2023-09-24T11:22:09.000Z</time>
      </trkpt>
      <trkpt lat="42.485953" lon="-8.643346">
        <ele>162.532149</ele>
        <time>2023-09-24T11:22:23.000Z</time>
      </trkpt>
      <trkpt lat="42.486494" lon="-8.643194">
        <ele>167.77014</ele>
        <time>2023-09-24T11:22:29.000Z</time>
      </trkpt>
      <trkpt lat="42.486864" lon="-8.642965">
        <ele>169.758951</ele>
        <time>2023-09-24T11:22:34.000Z</time>
      </trkpt>
      <trkpt lat="42.487223" lon="-8.642686">
        <ele>171.001048</ele>
        <time>2023-09-24T11:22:39.000Z</time>
      </trkpt>
      <trkpt lat="42.488136" lon="-8.641841">
        <ele>174.194852</ele>
        <time>2023-09-24T11:22:51.000Z</time>
      </trkpt>
      <trkpt lat="42.488841" lon="-8.641105">
        <ele>171.917598</ele>
        <time>2023-09-24T11:23:01.000Z</time>
      </trkpt>
      <trkpt lat="42.489288" lon="-8.640763">
        <ele>170.609526</ele>
        <time>2023-09-24T11:23:07.000Z</time>
      </trkpt>
      <trkpt lat="42.489529" lon="-8.640655">
        <ele>169.981555</ele>
        <time>2023-09-24T11:23:10.000Z</time>
      </trkpt>
      <trkpt lat="42.489784" lon="-8.640546">
        <ele>169.751284</ele>
        <time>2023-09-24T11:23:13.000Z</time>
      </trkpt>
      <trkpt lat="42.489965" lon="-8.640507">
        <ele>169.882218</ele>
        <time>2023-09-24T11:23:15.000Z</time>
      </trkpt>
      <trkpt lat="42.490457" lon="-8.640475">
        <ele>170.229333</ele>
        <time>2023-09-24T11:23:20.000Z</time>
      </trkpt>
      <trkpt lat="42.492047" lon="-8.640609">
        <ele>173.337783</ele>
        <time>2023-09-24T11:23:38.000Z</time>
      </trkpt>
      <trkpt lat="42.49457" lon="-8.6408">
        <ele>183.419939</ele>
        <time>2023-09-24T11:24:06.000Z</time>
      </trkpt>
      <trkpt lat="42.494902" lon="-8.640708">
        <ele>184.76347</ele>
        <time>2023-09-24T11:24:10.000Z</time>
      </trkpt>
      <trkpt lat="42.495202" lon="-8.640477">
        <ele>184.90485</ele>
        <time>2023-09-24T11:24:14.000Z</time>
      </trkpt>
      <trkpt lat="42.495687" lon="-8.639859">
        <ele>183.891328</ele>
        <time>2023-09-24T11:24:21.000Z</time>
      </trkpt>
      <trkpt lat="42.495835" lon="-8.639673">
        <ele>183.591033</ele>
        <time>2023-09-24T11:24:23.000Z</time>
      </trkpt>
      <trkpt lat="42.496169" lon="-8.639393">
        <ele>182.982499</ele>
        <time>2023-09-24T11:24:27.000Z</time>
      </trkpt>
      <trkpt lat="42.496395" lon="-8.63923">
        <ele>182.585201</ele>
        <time>2023-09-24T11:24:30.000Z</time>
      </trkpt>
      <trkpt lat="42.496733" lon="-8.639222">
        <ele>181.657285</ele>
        <time>2023-09-24T11:24:34.000Z</time>
      </trkpt>
      <trkpt lat="42.497119" lon="-8.639287">
        <ele>180.459385</ele>
        <time>2023-09-24T11:24:38.000Z</time>
      </trkpt>
      <trkpt lat="42.497445" lon="-8.639511">
        <ele>179.371392</ele>
        <time>2023-09-24T11:24:42.000Z</time>
      </trkpt>
      <trkpt lat="42.497564" lon="-8.639603">
        <ele>178.902158</ele>
        <time>2023-09-24T11:24:44.000Z</time>
      </trkpt>
      <trkpt lat="42.497658" lon="-8.639715">
        <ele>178.532587</ele>
        <time>2023-09-24T11:24:45.000Z</time>
      </trkpt>
      <trkpt lat="42.498525" lon="-8.640922">
        <ele>178.064043</ele>
        <time>2023-09-24T11:24:59.000Z</time>
      </trkpt>
      <trkpt lat="42.498879" lon="-8.641276">
        <ele>178.691905</ele>
        <time>2023-09-24T11:25:04.000Z</time>
      </trkpt>
      <trkpt lat="42.49927" lon="-8.641557">
        <ele>179.320579</ele>
        <time>2023-09-24T11:25:09.000Z</time>
      </trkpt>
      <trkpt lat="42.499725" lon="-8.641762">
        <ele>179.392282</ele>
        <time>2023-09-24T11:25:14.000Z</time>
      </trkpt>
      <trkpt lat="42.500135" lon="-8.641856">
        <ele>179.160902</ele>
        <time>2023-09-24T11:25:19.000Z</time>
      </trkpt>
      <trkpt lat="42.502637" lon="-8.641786">
        <ele>175.206466</ele>
        <time>2023-09-24T11:25:47.000Z</time>
      </trkpt>
      <trkpt lat="42.502892" lon="-8.641854">
        <ele>174.588227</ele>
        <time>2023-09-24T11:25:50.000Z</time>
      </trkpt>
      <trkpt lat="42.503159" lon="-8.641972">
        <ele>173.808916</ele>
        <time>2023-09-24T11:25:53.000Z</time>
      </trkpt>
      <trkpt lat="42.503413" lon="-8.642158">
        <ele>172.924542</ele>
        <time>2023-09-24T11:25:56.000Z</time>
      </trkpt>
      <trkpt lat="42.503607" lon="-8.642323">
        <ele>172.215481</ele>
        <time>2023-09-24T11:25:59.000Z</time>
      </trkpt>
      <trkpt lat="42.504126" lon="-8.642778">
        <ele>170.343347</ele>
        <time>2023-09-24T11:26:06.000Z</time>
      </trkpt>
      <trkpt lat="42.504552" lon="-8.643011">
        <ele>168.959727</ele>
        <time>2023-09-24T11:26:11.000Z</time>
      </trkpt>
      <trkpt lat="42.505285" lon="-8.643293">
        <ele>168.838888</ele>
        <time>2023-09-24T11:26:19.000Z</time>
      </trkpt>
      <trkpt lat="42.50528" lon="-8.643287">
        <ele>168.838924</ele>
        <time>2023-09-24T11:26:19.000Z</time>
      </trkpt>
      <trkpt lat="42.505829" lon="-8.643498">
        <ele>168.844417</ele>
        <time>2023-09-24T11:26:25.000Z</time>
      </trkpt>
      <trkpt lat="42.505856" lon="-8.643505">
        <ele>168.844544</ele>
        <time>2023-09-24T11:26:25.000Z</time>
      </trkpt>
      <trkpt lat="42.507175" lon="-8.644012">
        <ele>168.844684</ele>
        <time>2023-09-24T11:26:40.000Z</time>
      </trkpt>
      <trkpt lat="42.505845" lon="-8.643512">
        <ele>168.842998</ele>
        <time>2023-09-24T11:26:55.000Z</time>
      </trkpt>
      <trkpt lat="42.505826" lon="-8.643515">
        <ele>168.843091</ele>
        <time>2023-09-24T11:26:55.000Z</time>
      </trkpt>
      <trkpt lat="42.505286" lon="-8.643292">
        <ele>168.846617</ele>
        <time>2023-09-24T11:27:01.000Z</time>
      </trkpt>
      <trkpt lat="42.505271" lon="-8.643292">
        <ele>168.84664</ele>
        <time>2023-09-24T11:27:01.000Z</time>
      </trkpt>
      <trkpt lat="42.504539" lon="-8.643007">
        <ele>168.942019</ele>
        <time>2023-09-24T11:27:09.000Z</time>
      </trkpt>
      <trkpt lat="42.504134" lon="-8.642782">
        <ele>170.331027</ele>
        <time>2023-09-24T11:27:14.000Z</time>
      </trkpt>
      <trkpt lat="42.503621" lon="-8.642324">
        <ele>172.210428</ele>
        <time>2023-09-24T11:27:21.000Z</time>
      </trkpt>
      <trkpt lat="42.503421" lon="-8.642164">
        <ele>172.92224</ele>
        <time>2023-09-24T11:27:24.000Z</time>
      </trkpt>
      <trkpt lat="42.503166" lon="-8.641977">
        <ele>173.810066</ele>
        <time>2023-09-24T11:27:27.000Z</time>
      </trkpt>
      <trkpt lat="42.502905" lon="-8.64185">
        <ele>174.599023</ele>
        <time>2023-09-24T11:27:30.000Z</time>
      </trkpt>
      <trkpt lat="42.50264" lon="-8.641794">
        <ele>175.214533</ele>
        <time>2023-09-24T11:27:33.000Z</time>
      </trkpt>
      <trkpt lat="42.50013" lon="-8.641843">
        <ele>179.152215</ele>
        <time>2023-09-24T11:28:01.000Z</time>
      </trkpt>
      <trkpt lat="42.499727" lon="-8.641765">
        <ele>179.374351</ele>
        <time>2023-09-24T11:28:06.000Z</time>
      </trkpt>
      <trkpt lat="42.49928" lon="-8.641565">
        <ele>179.321714</ele>
        <time>2023-09-24T11:28:11.000Z</time>
      </trkpt>
      <trkpt lat="42.498887" lon="-8.641275">
        <ele>178.698722</ele>
        <time>2023-09-24T11:28:16.000Z</time>
      </trkpt>
      <trkpt lat="42.498525" lon="-8.640918">
        <ele>178.076531</ele>
        <time>2023-09-24T11:28:21.000Z</time>
      </trkpt>
      <trkpt lat="42.497655" lon="-8.639699">
        <ele>178.513751</ele>
        <time>2023-09-24T11:28:35.000Z</time>
      </trkpt>
      <trkpt lat="42.497568" lon="-8.6396">
        <ele>178.886669</ele>
        <time>2023-09-24T11:28:36.000Z</time>
      </trkpt>
      <trkpt lat="42.497428" lon="-8.6395">
        <ele>179.360155</ele>
        <time>2023-09-24T11:28:38.000Z</time>
      </trkpt>
      <trkpt lat="42.497123" lon="-8.639282">
        <ele>180.457975</ele>
        <time>2023-09-24T11:28:42.000Z</time>
      </trkpt>
      <trkpt lat="42.496727" lon="-8.639214">
        <ele>181.666694</ele>
        <time>2023-09-24T11:28:46.000Z</time>
      </trkpt>
      <trkpt lat="42.496402" lon="-8.639239">
        <ele>182.619163</ele>
        <time>2023-09-24T11:28:50.000Z</time>
      </trkpt>
      <trkpt lat="42.496164" lon="-8.639401">
        <ele>183.004491</ele>
        <time>2023-09-24T11:28:53.000Z</time>
      </trkpt>
      <trkpt lat="42.495819" lon="-8.63967">
        <ele>183.594697</ele>
        <time>2023-09-24T11:28:57.000Z</time>
      </trkpt>
      <trkpt lat="42.495694" lon="-8.639861">
        <ele>183.885932</ele>
        <time>2023-09-24T11:28:59.000Z</time>
      </trkpt>
      <trkpt lat="42.495204" lon="-8.640488">
        <ele>184.868909</ele>
        <time>2023-09-24T11:29:06.000Z</time>
      </trkpt>
      <trkpt lat="42.494894" lon="-8.640691">
        <ele>184.782744</ele>
        <time>2023-09-24T11:29:10.000Z</time>
      </trkpt>
      <trkpt lat="42.494565" lon="-8.640796">
        <ele>183.434053</ele>
        <time>2023-09-24T11:29:14.000Z</time>
      </trkpt>
      <trkpt lat="42.492058" lon="-8.640601">
        <ele>173.342511</ele>
        <time>2023-09-24T11:29:42.000Z</time>
      </trkpt>
      <trkpt lat="42.49046" lon="-8.640482">
        <ele>170.235065</ele>
        <time>2023-09-24T11:30:00.000Z</time>
      </trkpt>
      <trkpt lat="42.489957" lon="-8.640501">
        <ele>169.90474</ele>
        <time>2023-09-24T11:30:06.000Z</time>
      </trkpt>
      <trkpt lat="42.489792" lon="-8.640549">
        <ele>169.780158</ele>
        <time>2023-09-24T11:30:08.000Z</time>
      </trkpt>
      <trkpt lat="42.48952" lon="-8.640644">
        <ele>169.975123</ele>
        <time>2023-09-24T11:30:11.000Z</time>
      </trkpt>
      <trkpt lat="42.489299" lon="-8.640774">
        <ele>170.601314</ele>
        <time>2023-09-24T11:30:14.000Z</time>
      </trkpt>
      <trkpt lat="42.48884" lon="-8.641112">
        <ele>171.905667</ele>
        <time>2023-09-24T11:30:20.000Z</time>
      </trkpt>
      <trkpt lat="42.488133" lon="-8.641839">
        <ele>174.176476</ele>
        <time>2023-09-24T11:30:30.000Z</time>
      </trkpt>
      <trkpt lat="42.487221" lon="-8.642689">
        <ele>170.990077</ele>
        <time>2023-09-24T11:30:42.000Z</time>
      </trkpt>
      <trkpt lat="42.486865" lon="-8.642952">
        <ele>169.724806</ele>
        <time>2023-09-24T11:30:47.000Z</time>
      </trkpt>
      <trkpt lat="42.486496" lon="-8.643195">
        <ele>167.790646</ele>
        <time>2023-09-24T11:30:52.000Z</time>
      </trkpt>
      <trkpt lat="42.485953" lon="-8.643359">
        <ele>162.518714</ele>
        <time>2023-09-24T11:30:58.000Z</time>
      </trkpt>
      <trkpt lat="42.484659" lon="-8.643395">
        <ele>150.505863</ele>
        <time>2023-09-24T11:31:12.000Z</time>
      </trkpt>
      <trkpt lat="42.484106" lon="-8.643261">
        <ele>146.040856</ele>
        <time>2023-09-24T11:31:18.000Z</time>
      </trkpt>
      <trkpt lat="42.483718" lon="-8.642969">
        <ele>142.518803</ele>
        <time>2023-09-24T11:31:23.000Z</time>
      </trkpt>
      <trkpt lat="42.48328" lon="-8.642496">
        <ele>138.162564</ele>
        <time>2023-09-24T11:31:29.000Z</time>
      </trkpt>
      <trkpt lat="42.483263" lon="-8.642498">
        <ele>138.094367</ele>
        <time>2023-09-24T11:31:29.000Z</time>
      </trkpt>
      <trkpt lat="42.482799" lon="-8.642085">
        <ele>135.46573</ele>
        <time>2023-09-24T11:31:35.000Z</time>
      </trkpt>
      <trkpt lat="42.482623" lon="-8.641946">
        <ele>134.548678</ele>
        <time>2023-09-24T11:31:37.000Z</time>
      </trkpt>
      <trkpt lat="42.481957" lon="-8.641684">
        <ele>131.639698</ele>
        <time>2023-09-24T11:31:45.000Z</time>
      </trkpt>
      <trkpt lat="42.481622" lon="-8.641647">
        <ele>130.154486</ele>
        <time>2023-09-24T11:31:49.000Z</time>
      </trkpt>
      <trkpt lat="42.481198" lon="-8.641705">
        <ele>128.835682</ele>
        <time>2023-09-24T11:31:54.000Z</time>
      </trkpt>
      <trkpt lat="42.480638" lon="-8.641992">
        <ele>127.11662</ele>
        <time>2023-09-24T11:32:01.000Z</time>
      </trkpt>
      <trkpt lat="42.480258" lon="-8.642168">
        <ele>125.95673</ele>
        <time>2023-09-24T11:32:05.000Z</time>
      </trkpt>
      <trkpt lat="42.479697" lon="-8.642278">
        <ele>124.139869</ele>
        <time>2023-09-24T11:32:11.000Z</time>
      </trkpt>
      <trkpt lat="42.479182" lon="-8.642306">
        <ele>121.411873</ele>
        <time>2023-09-24T11:32:17.000Z</time>
      </trkpt>
      <trkpt lat="42.478881" lon="-8.6424">
        <ele>119.726895</ele>
        <time>2023-09-24T11:32:20.000Z</time>
      </trkpt>
      <trkpt lat="42.478618" lon="-8.642585">
        <ele>118.201337</ele>
        <time>2023-09-24T11:32:23.000Z</time>
      </trkpt>
      <trkpt lat="42.477888" lon="-8.643317">
        <ele>111.406226</ele>
        <time>2023-09-24T11:32:33.000Z</time>
      </trkpt>
      <trkpt lat="42.477557" lon="-8.643722">
        <ele>106.159808</ele>
        <time>2023-09-24T11:32:38.000Z</time>
      </trkpt>
      <trkpt lat="42.477479" lon="-8.643801">
        <ele>105.103091</ele>
        <time>2023-09-24T11:32:39.000Z</time>
      </trkpt>
      <trkpt lat="42.47661" lon="-8.644676">
        <ele>92.884381</ele>
        <time>2023-09-24T11:32:51.000Z</time>
      </trkpt>
      <trkpt lat="42.47648" lon="-8.644796">
        <ele>91.280837</ele>
        <time>2023-09-24T11:32:53.000Z</time>
      </trkpt>
      <trkpt lat="42.476084" lon="-8.64512">
        <ele>86.512512</ele>
        <time>2023-09-24T11:32:58.000Z</time>
      </trkpt>
      <trkpt lat="42.476067" lon="-8.645132">
        <ele>86.202405</ele>
        <time>2023-09-24T11:32:58.000Z</time>
      </trkpt>
      <trkpt lat="42.475804" lon="-8.64523">
        <ele>83.420777</ele>
        <time>2023-09-24T11:33:01.000Z</time>
      </trkpt>
      <trkpt lat="42.475763" lon="-8.645255">
        <ele>83.044981</ele>
        <time>2023-09-24T11:33:02.000Z</time>
      </trkpt>
      <trkpt lat="42.475693" lon="-8.645287">
        <ele>82.33722</ele>
        <time>2023-09-24T11:33:03.000Z</time>
      </trkpt>
      <trkpt lat="42.47528" lon="-8.645235">
        <ele>78.046121</ele>
        <time>2023-09-24T11:33:08.000Z</time>
      </trkpt>
      <trkpt lat="42.475018" lon="-8.645094">
        <ele>75.613488</ele>
        <time>2023-09-24T11:33:11.000Z</time>
      </trkpt>
      <trkpt lat="42.474765" lon="-8.644931">
        <ele>74.057823</ele>
        <time>2023-09-24T11:33:14.000Z</time>
      </trkpt>
      <trkpt lat="42.474469" lon="-8.644569">
        <ele>71.803581</ele>
        <time>2023-09-24T11:33:18.000Z</time>
      </trkpt>
      <trkpt lat="42.4744" lon="-8.644461">
        <ele>71.277724</ele>
        <time>2023-09-24T11:33:19.000Z</time>
      </trkpt>
      <trkpt lat="42.474254" lon="-8.64416">
        <ele>69.784848</ele>
        <time>2023-09-24T11:33:22.000Z</time>
      </trkpt>
      <trkpt lat="42.473849" lon="-8.642979">
        <ele>64.929806</ele>
        <time>2023-09-24T11:33:33.000Z</time>
      </trkpt>
      <trkpt lat="42.473819" lon="-8.642803">
        <ele>64.394833</ele>
        <time>2023-09-24T11:33:34.000Z</time>
      </trkpt>
      <trkpt lat="42.473802" lon="-8.642698">
        <ele>64.039562</ele>
        <time>2023-09-24T11:33:35.000Z</time>
      </trkpt>
      <trkpt lat="42.47359" lon="-8.641909">
        <ele>61.414166</ele>
        <time>2023-09-24T11:33:42.000Z</time>
      </trkpt>
      <trkpt lat="42.473471" lon="-8.640588">
        <ele>58.03771</ele>
        <time>2023-09-24T11:33:53.000Z</time>
      </trkpt>
      <trkpt lat="42.473327" lon="-8.639652">
        <ele>56.838994</ele>
        <time>2023-09-24T11:34:01.000Z</time>
      </trkpt>
      <trkpt lat="42.47325" lon="-8.639291">
        <ele>56.344942</ele>
        <time>2023-09-24T11:34:04.000Z</time>
      </trkpt>
      <trkpt lat="42.472982" lon="-8.638703">
        <ele>55.516369</ele>
        <time>2023-09-24T11:34:10.000Z</time>
      </trkpt>
      <trkpt lat="42.472776" lon="-8.638448">
        <ele>56.260869</ele>
        <time>2023-09-24T11:34:13.000Z</time>
      </trkpt>
      <trkpt lat="42.472532" lon="-8.638281">
        <ele>56.956187</ele>
        <time>2023-09-24T11:34:16.000Z</time>
      </trkpt>
      <trkpt lat="42.472256" lon="-8.638184">
        <ele>57.66907</ele>
        <time>2023-09-24T11:34:19.000Z</time>
      </trkpt>
      <trkpt lat="42.472198" lon="-8.638157">
        <ele>57.840432</ele>
        <time>2023-09-24T11:34:20.000Z</time>
      </trkpt>
      <trkpt lat="42.471947" lon="-8.638116">
        <ele>58.515098</ele>
        <time>2023-09-24T11:34:23.000Z</time>
      </trkpt>
      <trkpt lat="42.471859" lon="-8.638131">
        <ele>58.738644</ele>
        <time>2023-09-24T11:34:24.000Z</time>
      </trkpt>
      <trkpt lat="42.471612" lon="-8.638186">
        <ele>59.343192</ele>
        <time>2023-09-24T11:34:27.000Z</time>
      </trkpt>
      <trkpt lat="42.47126" lon="-8.63839">
        <ele>60.224222</ele>
        <time>2023-09-24T11:34:31.000Z</time>
      </trkpt>
      <trkpt lat="42.470956" lon="-8.638802">
        <ele>60.702071</ele>
        <time>2023-09-24T11:34:36.000Z</time>
      </trkpt>
      <trkpt lat="42.47088" lon="-8.638963">
        <ele>60.849711</ele>
        <time>2023-09-24T11:34:38.000Z</time>
      </trkpt>
      <trkpt lat="42.470518" lon="-8.639738">
        <ele>61.57728</ele>
        <time>2023-09-24T11:34:46.000Z</time>
      </trkpt>
      <trkpt lat="42.470034" lon="-8.640684">
        <ele>61.607321</ele>
        <time>2023-09-24T11:34:55.000Z</time>
      </trkpt>
      <trkpt lat="42.469972" lon="-8.640763">
        <ele>61.507887</ele>
        <time>2023-09-24T11:34:56.000Z</time>
      </trkpt>
      <trkpt lat="42.469906" lon="-8.640909">
        <ele>61.35643</ele>
        <time>2023-09-24T11:34:57.000Z</time>
      </trkpt>
      <trkpt lat="42.469287" lon="-8.642091">
        <ele>60.04382</ele>
        <time>2023-09-24T11:35:09.000Z</time>
      </trkpt>
      <trkpt lat="42.469158" lon="-8.642355">
        <ele>59.583304</ele>
        <time>2023-09-24T11:35:12.000Z</time>
      </trkpt>
      <trkpt lat="42.468995" lon="-8.642643">
        <ele>58.723867</ele>
        <time>2023-09-24T11:35:15.000Z</time>
      </trkpt>
      <trkpt lat="42.468789" lon="-8.642855">
        <ele>57.94681</ele>
        <time>2023-09-24T11:35:18.000Z</time>
      </trkpt>
      <trkpt lat="42.46857" lon="-8.64296">
        <ele>57.197614</ele>
        <time>2023-09-24T11:35:21.000Z</time>
      </trkpt>
      <trkpt lat="42.468474" lon="-8.642985">
        <ele>56.879613</ele>
        <time>2023-09-24T11:35:22.000Z</time>
      </trkpt>
      <trkpt lat="42.468159" lon="-8.642975">
        <ele>55.898571</ele>
        <time>2023-09-24T11:35:26.000Z</time>
      </trkpt>
      <trkpt lat="42.468014" lon="-8.642946">
        <ele>55.471675</ele>
        <time>2023-09-24T11:35:28.000Z</time>
      </trkpt>
      <trkpt lat="42.466685" lon="-8.64274">
        <ele>50.659077</ele>
        <time>2023-09-24T11:35:43.000Z</time>
      </trkpt>
      <trkpt lat="42.465825" lon="-8.642616">
        <ele>47.405593</ele>
        <time>2023-09-24T11:35:53.000Z</time>
      </trkpt>
      <trkpt lat="42.465441" lon="-8.642548">
        <ele>46.763858</ele>
        <time>2023-09-24T11:35:57.000Z</time>
      </trkpt>
      <trkpt lat="42.465135" lon="-8.642499">
        <ele>46.256329</ele>
        <time>2023-09-24T11:36:00.000Z</time>
      </trkpt>
      <trkpt lat="42.464476" lon="-8.642339">
        <ele>45.158693</ele>
        <time>2023-09-24T11:36:07.000Z</time>
      </trkpt>
      <trkpt lat="42.463961" lon="-8.642247">
        <ele>44.216325</ele>
        <time>2023-09-24T11:36:13.000Z</time>
      </trkpt>
      <trkpt lat="42.462792" lon="-8.642156">
        <ele>41.357874</ele>
        <time>2023-09-24T11:36:26.000Z</time>
      </trkpt>
      <trkpt lat="42.462547" lon="-8.64211">
        <ele>40.751579</ele>
        <time>2023-09-24T11:36:29.000Z</time>
      </trkpt>
      <trkpt lat="42.462333" lon="-8.642032">
        <ele>40.210676</ele>
        <time>2023-09-24T11:36:31.000Z</time>
      </trkpt>
      <trkpt lat="42.461643" lon="-8.641704">
        <ele>38.520091</ele>
        <time>2023-09-24T11:36:39.000Z</time>
      </trkpt>
      <trkpt lat="42.458654" lon="-8.640235">
        <ele>33.151417</ele>
        <time>2023-09-24T11:37:14.000Z</time>
      </trkpt>
      <trkpt lat="42.45766" lon="-8.640046">
        <ele>32.90423</ele>
        <time>2023-09-24T11:37:25.000Z</time>
      </trkpt>
      <trkpt lat="42.455314" lon="-8.639611">
        <ele>34.541712</ele>
        <time>2023-09-24T11:37:51.000Z</time>
      </trkpt>
      <trkpt lat="42.454575" lon="-8.639445">
        <ele>34.031978</ele>
        <time>2023-09-24T11:37:59.000Z</time>
      </trkpt>
      <trkpt lat="42.453599" lon="-8.63907">
        <ele>33.322378</ele>
        <time>2023-09-24T11:38:10.000Z</time>
      </trkpt>
      <trkpt lat="42.452312" lon="-8.638533">
        <ele>31.039473</ele>
        <time>2023-09-24T11:38:25.000Z</time>
      </trkpt>
      <trkpt lat="42.451953" lon="-8.638417">
        <ele>30.407537</ele>
        <time>2023-09-24T11:38:29.000Z</time>
      </trkpt>
      <trkpt lat="42.451729" lon="-8.638282">
        <ele>30.561289</ele>
        <time>2023-09-24T11:38:32.000Z</time>
      </trkpt>
      <trkpt lat="42.45117" lon="-8.637931">
        <ele>31.627335</ele>
        <time>2023-09-24T11:38:39.000Z</time>
      </trkpt>
      <trkpt lat="42.451073" lon="-8.637903">
        <ele>31.803959</ele>
        <time>2023-09-24T11:38:40.000Z</time>
      </trkpt>
      <trkpt lat="42.450969" lon="-8.637876">
        <ele>31.970398</ele>
        <time>2023-09-24T11:38:41.000Z</time>
      </trkpt>
      <trkpt lat="42.450914" lon="-8.63779">
        <ele>32.12222</ele>
        <time>2023-09-24T11:38:42.000Z</time>
      </trkpt>
      <trkpt lat="42.450876" lon="-8.637605">
        <ele>32.361787</ele>
        <time>2023-09-24T11:38:44.000Z</time>
      </trkpt>
      <trkpt lat="42.450922" lon="-8.637463">
        <ele>32.561667</ele>
        <time>2023-09-24T11:38:45.000Z</time>
      </trkpt>
      <trkpt lat="42.450942" lon="-8.637293">
        <ele>32.794117</ele>
        <time>2023-09-24T11:38:46.000Z</time>
      </trkpt>
      <trkpt lat="42.450904" lon="-8.637144">
        <ele>32.991474</ele>
        <time>2023-09-24T11:38:47.000Z</time>
      </trkpt>
      <trkpt lat="42.450812" lon="-8.637013">
        <ele>33.208458</ele>
        <time>2023-09-24T11:38:48.000Z</time>
      </trkpt>
      <trkpt lat="42.450604" lon="-8.636769">
        <ele>33.684086</ele>
        <time>2023-09-24T11:38:51.000Z</time>
      </trkpt>
      <trkpt lat="42.450304" lon="-8.636528">
        <ele>34.285398</ele>
        <time>2023-09-24T11:38:55.000Z</time>
      </trkpt>
      <trkpt lat="42.449882" lon="-8.636306">
        <ele>35.045712</ele>
        <time>2023-09-24T11:39:00.000Z</time>
      </trkpt>
      <trkpt lat="42.449592" lon="-8.636283">
        <ele>35.547899</ele>
        <time>2023-09-24T11:39:03.000Z</time>
      </trkpt>
      <trkpt lat="42.449105" lon="-8.636368">
        <ele>36.403006</ele>
        <time>2023-09-24T11:39:08.000Z</time>
      </trkpt>
      <trkpt lat="42.448115" lon="-8.636732">
        <ele>35.702255</ele>
        <time>2023-09-24T11:39:19.000Z</time>
      </trkpt>
      <trkpt lat="42.447525" lon="-8.636816">
        <ele>35.232772</ele>
        <time>2023-09-24T11:39:26.000Z</time>
      </trkpt>
      <trkpt lat="42.447186" lon="-8.636747">
        <ele>34.407041</ele>
        <time>2023-09-24T11:39:30.000Z</time>
      </trkpt>
      <trkpt lat="42.446902" lon="-8.636599">
        <ele>32.75781</ele>
        <time>2023-09-24T11:39:33.000Z</time>
      </trkpt>
      <trkpt lat="42.446346" lon="-8.636225">
        <ele>29.47309</ele>
        <time>2023-09-24T11:39:40.000Z</time>
      </trkpt>
      <trkpt lat="42.446357" lon="-8.636229">
        <ele>29.473085</ele>
        <time>2023-09-24T11:39:40.000Z</time>
      </trkpt>
      <trkpt lat="42.445805" lon="-8.635997">
        <ele>26.399714</ele>
        <time>2023-09-24T11:39:46.000Z</time>
      </trkpt>
      <trkpt lat="42.445389" lon="-8.635883">
        <ele>23.979906</ele>
        <time>2023-09-24T11:39:51.000Z</time>
      </trkpt>
      <trkpt lat="42.445003" lon="-8.635882">
        <ele>21.618937</ele>
        <time>2023-09-24T11:39:55.000Z</time>
      </trkpt>
      <trkpt lat="42.444559" lon="-8.635976">
        <ele>18.920431</ele>
        <time>2023-09-24T11:40:00.000Z</time>
      </trkpt>
      <trkpt lat="42.444051" lon="-8.636133">
        <ele>15.70104</ele>
        <time>2023-09-24T11:40:06.000Z</time>
      </trkpt>
      <trkpt lat="42.443259" lon="-8.636549">
        <ele>13.300225</ele>
        <time>2023-09-24T11:40:15.000Z</time>
      </trkpt>
      <trkpt lat="42.442764" lon="-8.636895">
        <ele>12.297409</ele>
        <time>2023-09-24T11:40:21.000Z</time>
      </trkpt>
      <trkpt lat="42.442026" lon="-8.637577">
        <ele>10.9231</ele>
        <time>2023-09-24T11:40:31.000Z</time>
      </trkpt>
      <trkpt lat="42.441305" lon="-8.638263">
        <ele>9.972979</ele>
        <time>2023-09-24T11:40:41.000Z</time>
      </trkpt>
      <trkpt lat="42.44057" lon="-8.638901">
        <ele>8.886832</ele>
        <time>2023-09-24T11:40:51.000Z</time>
      </trkpt>
      <trkpt lat="42.440128" lon="-8.63917">
        <ele>8.118892</ele>
        <time>2023-09-24T11:40:56.000Z</time>
      </trkpt>
      <trkpt lat="42.439712" lon="-8.639452">
        <ele>7.348964</ele>
        <time>2023-09-24T11:41:01.000Z</time>
      </trkpt>
      <trkpt lat="42.439046" lon="-8.639792">
        <ele>6.296239</ele>
        <time>2023-09-24T11:41:09.000Z</time>
      </trkpt>
      <trkpt lat="42.438368" lon="-8.640137">
        <ele>5.756354</ele>
        <time>2023-09-24T11:41:17.000Z</time>
      </trkpt>
      <trkpt lat="42.437707" lon="-8.640481">
        <ele>5.215768</ele>
        <time>2023-09-24T11:41:25.000Z</time>
      </trkpt>
      <trkpt lat="42.437557" lon="-8.640586">
        <ele>5.089768</ele>
        <time>2023-09-24T11:41:27.000Z</time>
      </trkpt>
      <trkpt lat="42.437518" lon="-8.640651">
        <ele>5.044529</ele>
        <time>2023-09-24T11:41:28.000Z</time>
      </trkpt>
      <trkpt lat="42.437434" lon="-8.640676">
        <ele>5.021516</ele>
        <time>2023-09-24T11:41:29.000Z</time>
      </trkpt>
      <trkpt lat="42.437189" lon="-8.64073">
        <ele>5.01463</ele>
        <time>2023-09-24T11:41:32.000Z</time>
      </trkpt>
      <trkpt lat="42.436804" lon="-8.64093">
        <ele>5.00272</ele>
        <time>2023-09-24T11:41:37.000Z</time>
      </trkpt>
      <trkpt lat="42.436437" lon="-8.641124">
        <ele>4.991139</ele>
        <time>2023-09-24T11:41:41.000Z</time>
      </trkpt>
      <trkpt lat="42.436226" lon="-8.641234">
        <ele>4.984766</ele>
        <time>2023-09-24T11:41:44.000Z</time>
      </trkpt>
      <trkpt lat="42.436211" lon="-8.641284">
        <ele>4.983541</ele>
        <time>2023-09-24T11:41:44.000Z</time>
      </trkpt>
      <trkpt lat="42.436125" lon="-8.641374">
        <ele>4.980516</ele>
        <time>2023-09-24T11:41:45.000Z</time>
      </trkpt>
      <trkpt lat="42.436072" lon="-8.641365">
        <ele>4.97896</ele>
        <time>2023-09-24T11:41:46.000Z</time>
      </trkpt>
      <trkpt lat="42.43604" lon="-8.641343">
        <ele>4.977702</ele>
        <time>2023-09-24T11:41:46.000Z</time>
      </trkpt>
      <trkpt lat="42.435419" lon="-8.641551">
        <ele>5.670722</ele>
        <time>2023-09-24T11:41:53.000Z</time>
      </trkpt>
      <trkpt lat="42.435291" lon="-8.64157">
        <ele>5.87708</ele>
        <time>2023-09-24T11:41:54.000Z</time>
      </trkpt>
      <trkpt lat="42.435225" lon="-8.641568">
        <ele>5.974426</ele>
        <time>2023-09-24T11:41:55.000Z</time>
      </trkpt>
      <trkpt lat="42.435203" lon="-8.641574">
        <ele>6.022284</ele>
        <time>2023-09-24T11:41:55.000Z</time>
      </trkpt>
      <trkpt lat="42.435177" lon="-8.641577">
        <ele>6.075362</ele>
        <time>2023-09-24T11:41:55.000Z</time>
      </trkpt>
      <trkpt lat="42.434379" lon="-8.641763">
        <ele>7.412211</ele>
        <time>2023-09-24T11:42:04.000Z</time>
      </trkpt>
      <trkpt lat="42.434324" lon="-8.6418">
        <ele>7.497683</ele>
        <time>2023-09-24T11:42:05.000Z</time>
      </trkpt>
      <trkpt lat="42.434289" lon="-8.64184">
        <ele>7.582943</ele>
        <time>2023-09-24T11:42:06.000Z</time>
      </trkpt>
      <trkpt lat="42.434207" lon="-8.64186">
        <ele>7.708926</ele>
        <time>2023-09-24T11:42:07.000Z</time>
      </trkpt>
      <trkpt lat="42.434212" lon="-8.641863">
        <ele>7.717936</ele>
        <time>2023-09-24T11:42:07.000Z</time>
      </trkpt>
      <trkpt lat="42.434178" lon="-8.641848">
        <ele>7.753508</ele>
        <time>2023-09-24T11:42:07.000Z</time>
      </trkpt>
      <trkpt lat="42.434144" lon="-8.641828">
        <ele>7.835179</ele>
        <time>2023-09-24T11:42:07.000Z</time>
      </trkpt>
      <trkpt lat="42.434092" lon="-8.641688">
        <ele>7.971236</ele>
        <time>2023-09-24T11:42:08.000Z</time>
      </trkpt>
      <trkpt lat="42.434091" lon="-8.641654">
        <ele>7.986278</ele>
        <time>2023-09-24T11:42:08.000Z</time>
      </trkpt>
      <trkpt lat="42.434105" lon="-8.641621">
        <ele>8.000766</ele>
        <time>2023-09-24T11:42:08.000Z</time>
      </trkpt>
      <trkpt lat="42.434086" lon="-8.641485">
        <ele>8.071933</ele>
        <time>2023-09-24T11:42:09.000Z</time>
      </trkpt>
      <trkpt lat="42.434047" lon="-8.641335">
        <ele>8.144487</ele>
        <time>2023-09-24T11:42:10.000Z</time>
      </trkpt>
      <trkpt lat="42.433872" lon="-8.640406">
        <ele>8.595516</ele>
        <time>2023-09-24T11:42:18.000Z</time>
      </trkpt>
      <trkpt lat="42.433814" lon="-8.640195">
        <ele>8.70024</ele>
        <time>2023-09-24T11:42:20.000Z</time>
      </trkpt>
      <trkpt lat="42.433712" lon="-8.639577">
        <ele>9.005233</ele>
        <time>2023-09-24T11:42:25.000Z</time>
      </trkpt>
      <trkpt lat="42.433695" lon="-8.63946">
        <ele>9.066706</ele>
        <time>2023-09-24T11:42:26.000Z</time>
      </trkpt>
      <trkpt lat="42.433395" lon="-8.638006">
        <ele>7.973897</ele>
        <time>2023-09-24T11:42:38.000Z</time>
      </trkpt>
      <trkpt lat="42.433295" lon="-8.637471">
        <ele>7.542264</ele>
        <time>2023-09-24T11:42:43.000Z</time>
      </trkpt>
      <trkpt lat="42.433269" lon="-8.637267">
        <ele>7.392837</ele>
        <time>2023-09-24T11:42:45.000Z</time>
      </trkpt>
      <trkpt lat="42.433256" lon="-8.637157">
        <ele>7.306635</ele>
        <time>2023-09-24T11:42:46.000Z</time>
      </trkpt>
      <trkpt lat="42.433244" lon="-8.63691">
        <ele>7.066955</ele>
        <time>2023-09-24T11:42:48.000Z</time>
      </trkpt>
      <trkpt lat="42.43325" lon="-8.636753">
        <ele>6.889883</ele>
        <time>2023-09-24T11:42:49.000Z</time>
      </trkpt>
      <trkpt lat="42.433245" lon="-8.636685">
        <ele>6.814784</ele>
        <time>2023-09-24T11:42:50.000Z</time>
      </trkpt>
      <trkpt lat="42.433225" lon="-8.636481">
        <ele>6.603022</ele>
        <time>2023-09-24T11:42:52.000Z</time>
      </trkpt>
      <trkpt lat="42.433271" lon="-8.636348">
        <ele>6.436363</ele>
        <time>2023-09-24T11:42:53.000Z</time>
      </trkpt>
      <trkpt lat="42.433288" lon="-8.636328">
        <ele>6.410842</ele>
        <time>2023-09-24T11:42:53.000Z</time>
      </trkpt>
      <trkpt lat="42.433401" lon="-8.636211">
        <ele>6.190987</ele>
        <time>2023-09-24T11:42:55.000Z</time>
      </trkpt>
      <trkpt lat="42.433467" lon="-8.636189">
        <ele>6.106845</ele>
        <time>2023-09-24T11:42:56.000Z</time>
      </trkpt>
      <trkpt lat="42.43362" lon="-8.636236">
        <ele>5.879602</ele>
        <time>2023-09-24T11:42:58.000Z</time>
      </trkpt>
      <trkpt lat="42.433905" lon="-8.636292">
        <ele>5.436676</ele>
        <time>2023-09-24T11:43:01.000Z</time>
      </trkpt>
      <trkpt lat="42.43425" lon="-8.63642">
        <ele>4.925119</ele>
        <time>2023-09-24T11:43:05.000Z</time>
      </trkpt>
      <trkpt lat="42.435057" lon="-8.636597">
        <ele>4.48446</ele>
        <time>2023-09-24T11:43:14.000Z</time>
      </trkpt>
      <trkpt lat="42.435089" lon="-8.636597">
        <ele>4.47992</ele>
        <time>2023-09-24T11:43:14.000Z</time>
      </trkpt>
      <trkpt lat="42.435194" lon="-8.6366">
        <ele>4.466294</ele>
        <time>2023-09-24T11:43:15.000Z</time>
      </trkpt>
      <trkpt lat="42.435253" lon="-8.636517">
        <ele>4.452978</ele>
        <time>2023-09-24T11:43:16.000Z</time>
      </trkpt>
      <trkpt lat="42.435309" lon="-8.63651">
        <ele>4.446058</ele>
        <time>2023-09-24T11:43:17.000Z</time>
      </trkpt>
      <trkpt lat="42.435358" lon="-8.63652">
        <ele>4.438982</ele>
        <time>2023-09-24T11:43:18.000Z</time>
      </trkpt>
      <trkpt lat="42.435425" lon="-8.636593">
        <ele>4.424916</ele>
        <time>2023-09-24T11:43:19.000Z</time>
      </trkpt>
      <trkpt lat="42.435461" lon="-8.636706">
        <ele>4.410818</ele>
        <time>2023-09-24T11:43:20.000Z</time>
      </trkpt>
      <trkpt lat="42.435451" lon="-8.636776">
        <ele>4.403382</ele>
        <time>2023-09-24T11:43:21.000Z</time>
      </trkpt>
      <trkpt lat="42.435405" lon="-8.636887">
        <ele>4.388593</ele>
        <time>2023-09-24T11:43:22.000Z</time>
      </trkpt>
      <trkpt lat="42.435294" lon="-8.636913">
        <ele>4.372845</ele>
        <time>2023-09-24T11:43:23.000Z</time>
      </trkpt>
      <trkpt lat="42.4352" lon="-8.637209">
        <ele>4.338963</ele>
        <time>2023-09-24T11:43:26.000Z</time>
      </trkpt>
      <trkpt lat="42.435028" lon="-8.637932">
        <ele>4.566703</ele>
        <time>2023-09-24T11:43:32.000Z</time>
      </trkpt>
      <trkpt lat="42.435022" lon="-8.637949">
        <ele>4.571318</ele>
        <time>2023-09-24T11:43:32.000Z</time>
      </trkpt>
      <trkpt lat="42.434885" lon="-8.638559">
        <ele>4.923205</ele>
        <time>2023-09-24T11:43:37.000Z</time>
      </trkpt>
      <trkpt lat="42.434858" lon="-8.638899">
        <ele>5.117667</ele>
        <time>2023-09-24T11:43:40.000Z</time>
      </trkpt>
      <trkpt lat="42.434856" lon="-8.639483">
        <ele>5.435962</ele>
        <time>2023-09-24T11:43:45.000Z</time>
      </trkpt>
      <trkpt lat="42.434964" lon="-8.639974">
        <ele>5.602121</ele>
        <time>2023-09-24T11:43:49.000Z</time>
      </trkpt>
      <trkpt lat="42.435166" lon="-8.6411">
        <ele>5.246965</ele>
        <time>2023-09-24T11:43:59.000Z</time>
      </trkpt>
      <trkpt lat="42.435222" lon="-8.641204">
        <ele>5.209108</ele>
        <time>2023-09-24T11:44:00.000Z</time>
      </trkpt>
      <trkpt lat="42.435233" lon="-8.64124">
        <ele>5.196659</ele>
        <time>2023-09-24T11:44:00.000Z</time>
      </trkpt>
      <trkpt lat="42.43533" lon="-8.641321">
        <ele>5.150847</ele>
        <time>2023-09-24T11:44:01.000Z</time>
      </trkpt>
      <trkpt lat="42.435571" lon="-8.641349">
        <ele>5.051855</ele>
        <time>2023-09-24T11:44:04.000Z</time>
      </trkpt>
      <trkpt lat="42.435797" lon="-8.641237">
        <ele>4.952305</ele>
        <time>2023-09-24T11:44:07.000Z</time>
      </trkpt>
      <trkpt lat="42.435934" lon="-8.641153">
        <ele>4.901467</ele>
        <time>2023-09-24T11:44:09.000Z</time>
      </trkpt>
      <trkpt lat="42.435954" lon="-8.641165">
        <ele>4.902043</ele>
        <time>2023-09-24T11:44:09.000Z</time>
      </trkpt>
      <trkpt lat="42.435989" lon="-8.641131">
        <ele>4.905942</ele>
        <time>2023-09-24T11:44:09.000Z</time>
      </trkpt>
      <trkpt lat="42.436031" lon="-8.641063">
        <ele>4.910513</ele>
        <time>2023-09-24T11:44:10.000Z</time>
      </trkpt>
      <trkpt lat="42.436077" lon="-8.641045">
        <ele>4.915048</ele>
        <time>2023-09-24T11:44:11.000Z</time>
      </trkpt>
      <trkpt lat="42.436145" lon="-8.641046">
        <ele>4.919645</ele>
        <time>2023-09-24T11:44:12.000Z</time>
      </trkpt>
      <trkpt lat="42.436199" lon="-8.641082">
        <ele>4.924154</ele>
        <time>2023-09-24T11:44:13.000Z</time>
      </trkpt>
      <trkpt lat="42.43643" lon="-8.640947">
        <ele>4.944162</ele>
        <time>2023-09-24T11:44:16.000Z</time>
      </trkpt>
      <trkpt lat="42.436466" lon="-8.640942">
        <ele>4.946985</ele>
        <time>2023-09-24T11:44:16.000Z</time>
      </trkpt>
      <trkpt lat="42.437121" lon="-8.640522">
        <ele>5.003221</ele>
        <time>2023-09-24T11:44:24.000Z</time>
      </trkpt>
      <trkpt lat="42.437204" lon="-8.640403">
        <ele>5.013514</ele>
        <time>2023-09-24T11:44:25.000Z</time>
      </trkpt>
      <trkpt lat="42.437223" lon="-8.640314">
        <ele>5.018634</ele>
        <time>2023-09-24T11:44:26.000Z</time>
      </trkpt>
      <trkpt lat="42.437221" lon="-8.640098">
        <ele>5.030273</ele>
        <time>2023-09-24T11:44:28.000Z</time>
      </trkpt>
      <trkpt lat="42.437194" lon="-8.64008">
        <ele>5.032556</ele>
        <time>2023-09-24T11:44:28.000Z</time>
      </trkpt>
      <trkpt lat="42.437234" lon="-8.640042">
        <ele>5.035329</ele>
        <time>2023-09-24T11:44:29.000Z</time>
      </trkpt>
      <trkpt lat="42.437399" lon="-8.640283">
        <ele>5.103237</ele>
        <time>2023-09-24T11:44:32.000Z</time>
      </trkpt>
      <trkpt lat="42.437421" lon="-8.640293">
        <ele>5.11544</ele>
        <time>2023-09-24T11:44:32.000Z</time>
      </trkpt>
      <trkpt lat="42.437507" lon="-8.640303">
        <ele>5.146845</ele>
        <time>2023-09-24T11:44:33.000Z</time>
      </trkpt>
      <trkpt lat="42.437541" lon="-8.640333">
        <ele>5.160717</ele>
        <time>2023-09-24T11:44:33.000Z</time>
      </trkpt>
      <trkpt lat="42.437537" lon="-8.640339">
        <ele>5.160726</ele>
        <time>2023-09-24T11:44:33.000Z</time>
      </trkpt>
      <trkpt lat="42.437721" lon="-8.640309">
        <ele>5.227727</ele>
        <time>2023-09-24T11:44:35.000Z</time>
      </trkpt>
      <trkpt lat="42.437719" lon="-8.640305">
        <ele>5.227713</ele>
        <time>2023-09-24T11:44:35.000Z</time>
      </trkpt>
      <trkpt lat="42.438372" lon="-8.639989">
        <ele>5.483295</ele>
        <time>2023-09-24T11:44:43.000Z</time>
      </trkpt>
      <trkpt lat="42.439024" lon="-8.63965">
        <ele>5.852554</ele>
        <time>2023-09-24T11:44:51.000Z</time>
      </trkpt>
      <trkpt lat="42.439659" lon="-8.639323">
        <ele>6.904321</ele>
        <time>2023-09-24T11:44:59.000Z</time>
      </trkpt>
      <trkpt lat="42.440096" lon="-8.639044">
        <ele>7.633174</ele>
        <time>2023-09-24T11:45:04.000Z</time>
      </trkpt>
      <trkpt lat="42.440524" lon="-8.638763">
        <ele>8.362902</ele>
        <time>2023-09-24T11:45:09.000Z</time>
      </trkpt>
      <trkpt lat="42.441255" lon="-8.638158">
        <ele>9.382486</ele>
        <time>2023-09-24T11:45:19.000Z</time>
      </trkpt>
      <trkpt lat="42.441981" lon="-8.637467">
        <ele>10.42767</ele>
        <time>2023-09-24T11:45:29.000Z</time>
      </trkpt>
      <trkpt lat="42.442703" lon="-8.636761">
        <ele>11.580489</ele>
        <time>2023-09-24T11:45:39.000Z</time>
      </trkpt>
      <trkpt lat="42.443233" lon="-8.636403">
        <ele>12.365807</ele>
        <time>2023-09-24T11:45:46.000Z</time>
      </trkpt>
      <trkpt lat="42.444018" lon="-8.63598">
        <ele>15.283817</ele>
        <time>2023-09-24T11:45:55.000Z</time>
      </trkpt>
      <trkpt lat="42.444548" lon="-8.635827">
        <ele>18.27529</ele>
        <time>2023-09-24T11:46:01.000Z</time>
      </trkpt>
      <trkpt lat="42.445008" lon="-8.635756">
        <ele>20.95361</ele>
        <time>2023-09-24T11:46:06.000Z</time>
      </trkpt>
      <trkpt lat="42.445014" lon="-8.635767">
        <ele>20.95362</ele>
        <time>2023-09-24T11:46:06.000Z</time>
      </trkpt>
      <trkpt lat="42.445661" lon="-8.635842">
        <ele>24.720423</ele>
        <time>2023-09-24T11:46:13.000Z</time>
      </trkpt>
      <trkpt lat="42.446106" lon="-8.63606">
        <ele>27.635261</ele>
        <time>2023-09-24T11:46:18.000Z</time>
      </trkpt>
      <trkpt lat="42.446351" lon="-8.636229">
        <ele>29.395628</ele>
        <time>2023-09-24T11:46:21.000Z</time>
      </trkpt>
      <trkpt lat="42.446908" lon="-8.636587">
        <ele>33.170388</ele>
        <time>2023-09-24T11:46:28.000Z</time>
      </trkpt>
      <trkpt lat="42.447186" lon="-8.636744">
        <ele>34.339885</ele>
        <time>2023-09-24T11:46:31.000Z</time>
      </trkpt>
      <trkpt lat="42.447531" lon="-8.636823">
        <ele>34.830476</ele>
        <time>2023-09-24T11:46:35.000Z</time>
      </trkpt>
      <trkpt lat="42.448125" lon="-8.636737">
        <ele>35.657042</ele>
        <time>2023-09-24T11:46:42.000Z</time>
      </trkpt>
      <trkpt lat="42.449101" lon="-8.636368">
        <ele>36.300766</ele>
        <time>2023-09-24T11:46:53.000Z</time>
      </trkpt>
      <trkpt lat="42.449591" lon="-8.636281">
        <ele>35.765787</ele>
        <time>2023-09-24T11:46:58.000Z</time>
      </trkpt>
      <trkpt lat="42.449881" lon="-8.63631">
        <ele>35.45159</ele>
        <time>2023-09-24T11:47:01.000Z</time>
      </trkpt>
      <trkpt lat="42.45031" lon="-8.636454">
        <ele>34.975732</ele>
        <time>2023-09-24T11:47:06.000Z</time>
      </trkpt>
      <trkpt lat="42.450522" lon="-8.636576">
        <ele>34.744394</ele>
        <time>2023-09-24T11:47:09.000Z</time>
      </trkpt>
      <trkpt lat="42.450823" lon="-8.636886">
        <ele>34.04261</ele>
        <time>2023-09-24T11:47:13.000Z</time>
      </trkpt>
      <trkpt lat="42.450992" lon="-8.637105">
        <ele>33.609686</ele>
        <time>2023-09-24T11:47:16.000Z</time>
      </trkpt>
      <trkpt lat="42.45107" lon="-8.637305">
        <ele>33.283851</ele>
        <time>2023-09-24T11:47:18.000Z</time>
      </trkpt>
      <trkpt lat="42.451144" lon="-8.637389">
        <ele>33.109046</ele>
        <time>2023-09-24T11:47:19.000Z</time>
      </trkpt>
      <trkpt lat="42.451168" lon="-8.637407">
        <ele>33.054643</ele>
        <time>2023-09-24T11:47:19.000Z</time>
      </trkpt>
      <trkpt lat="42.451228" lon="-8.637465">
        <ele>32.920858</ele>
        <time>2023-09-24T11:47:20.000Z</time>
      </trkpt>
      <trkpt lat="42.45126" lon="-8.63763">
        <ele>32.679392</ele>
        <time>2023-09-24T11:47:21.000Z</time>
      </trkpt>
      <trkpt lat="42.451352" lon="-8.637805">
        <ele>32.376556</ele>
        <time>2023-09-24T11:47:23.000Z</time>
      </trkpt>
      <trkpt lat="42.451757" lon="-8.638198">
        <ele>31.456902</ele>
        <time>2023-09-24T11:47:29.000Z</time>
      </trkpt>
      <trkpt lat="42.452318" lon="-8.638525">
        <ele>31.894145</ele>
        <time>2023-09-24T11:47:36.000Z</time>
      </trkpt>
      <trkpt lat="42.453603" lon="-8.639069">
        <ele>33.35848</ele>
        <time>2023-09-24T11:47:51.000Z</time>
      </trkpt>
      <trkpt lat="42.454587" lon="-8.63946">
        <ele>34.106137</ele>
        <time>2023-09-24T11:48:02.000Z</time>
      </trkpt>
      <trkpt lat="42.455315" lon="-8.639624">
        <ele>34.574946</ele>
        <time>2023-09-24T11:48:10.000Z</time>
      </trkpt>
      <trkpt lat="42.457664" lon="-8.640042">
        <ele>32.884403</ele>
        <time>2023-09-24T11:48:36.000Z</time>
      </trkpt>
      <trkpt lat="42.458659" lon="-8.640228">
        <ele>32.958902</ele>
        <time>2023-09-24T11:48:47.000Z</time>
      </trkpt>
      <trkpt lat="42.460172" lon="-8.64098">
        <ele>34.838226</ele>
        <time>2023-09-24T11:49:05.000Z</time>
      </trkpt>
      <trkpt lat="42.460178" lon="-8.64097">
        <ele>34.842561</ele>
        <time>2023-09-24T11:49:05.000Z</time>
      </trkpt>
      <trkpt lat="42.461647" lon="-8.641698">
        <ele>38.331364</ele>
        <time>2023-09-24T11:49:22.000Z</time>
      </trkpt>
      <trkpt lat="42.462347" lon="-8.64203">
        <ele>40.167245</ele>
        <time>2023-09-24T11:49:30.000Z</time>
      </trkpt>
      <trkpt lat="42.462553" lon="-8.642114">
        <ele>40.727797</ele>
        <time>2023-09-24T11:49:32.000Z</time>
      </trkpt>
      <trkpt lat="42.462798" lon="-8.642161">
        <ele>41.356086</ele>
        <time>2023-09-24T11:49:35.000Z</time>
      </trkpt>
      <trkpt lat="42.463964" lon="-8.642251">
        <ele>44.318299</ele>
        <time>2023-09-24T11:49:48.000Z</time>
      </trkpt>
      <trkpt lat="42.464493" lon="-8.642348">
        <ele>45.175124</ele>
        <time>2023-09-24T11:49:54.000Z</time>
      </trkpt>
      <trkpt lat="42.465139" lon="-8.642439">
        <ele>46.237284</ele>
        <time>2023-09-24T11:50:01.000Z</time>
      </trkpt>
      <trkpt lat="42.465452" lon="-8.642558">
        <ele>46.740347</ele>
        <time>2023-09-24T11:50:05.000Z</time>
      </trkpt>
      <trkpt lat="42.465779" lon="-8.642541">
        <ele>47.318785</ele>
        <time>2023-09-24T11:50:09.000Z</time>
      </trkpt>
      <trkpt lat="42.466282" lon="-8.642627">
        <ele>49.192568</ele>
        <time>2023-09-24T11:50:15.000Z</time>
      </trkpt>
      <trkpt lat="42.466699" lon="-8.64273">
        <ele>50.721415</ele>
        <time>2023-09-24T11:50:20.000Z</time>
      </trkpt>
      <trkpt lat="42.468015" lon="-8.64294">
        <ele>55.542981</ele>
        <time>2023-09-24T11:50:35.000Z</time>
      </trkpt>
      <trkpt lat="42.468154" lon="-8.64298">
        <ele>56.013117</ele>
        <time>2023-09-24T11:50:37.000Z</time>
      </trkpt>
      <trkpt lat="42.468473" lon="-8.642997">
        <ele>57.09351</ele>
        <time>2023-09-24T11:50:41.000Z</time>
      </trkpt>
      <trkpt lat="42.468565" lon="-8.642953">
        <ele>57.443741</ele>
        <time>2023-09-24T11:50:42.000Z</time>
      </trkpt>
      <trkpt lat="42.468794" lon="-8.642853">
        <ele>58.268829</ele>
        <time>2023-09-24T11:50:45.000Z</time>
      </trkpt>
      <trkpt lat="42.468989" lon="-8.642648">
        <ele>59.124582</ele>
        <time>2023-09-24T11:50:48.000Z</time>
      </trkpt>
      <trkpt lat="42.469166" lon="-8.642354">
        <ele>60.071072</ele>
        <time>2023-09-24T11:50:51.000Z</time>
      </trkpt>
      <trkpt lat="42.469299" lon="-8.642085">
        <ele>60.41873</ele>
        <time>2023-09-24T11:50:54.000Z</time>
      </trkpt>
      <trkpt lat="42.469733" lon="-8.641077">
        <ele>61.683254</ele>
        <time>2023-09-24T11:51:04.000Z</time>
      </trkpt>
      <trkpt lat="42.469875" lon="-8.640832">
        <ele>62.005492</ele>
        <time>2023-09-24T11:51:07.000Z</time>
      </trkpt>
      <trkpt lat="42.470097" lon="-8.640398">
        <ele>62.575849</ele>
        <time>2023-09-24T11:51:11.000Z</time>
      </trkpt>
      <trkpt lat="42.47043" lon="-8.639772">
        <ele>62.137954</ele>
        <time>2023-09-24T11:51:17.000Z</time>
      </trkpt>
      <trkpt lat="42.470672" lon="-8.639247">
        <ele>61.63798</ele>
        <time>2023-09-24T11:51:22.000Z</time>
      </trkpt>
      <trkpt lat="42.47079" lon="-8.638981">
        <ele>61.373734</ele>
        <time>2023-09-24T11:51:25.000Z</time>
      </trkpt>
      <trkpt lat="42.470998" lon="-8.638636">
        <ele>60.996781</ele>
        <time>2023-09-24T11:51:29.000Z</time>
      </trkpt>
      <trkpt lat="42.471127" lon="-8.638516">
        <ele>60.823573</ele>
        <time>2023-09-24T11:51:31.000Z</time>
      </trkpt>
      <trkpt lat="42.47113" lon="-8.638511">
        <ele>60.817032</ele>
        <time>2023-09-24T11:51:31.000Z</time>
      </trkpt>
      <trkpt lat="42.471262" lon="-8.638387">
        <ele>60.59414</ele>
        <time>2023-09-24T11:51:33.000Z</time>
      </trkpt>
      <trkpt lat="42.471619" lon="-8.638184">
        <ele>59.53665</ele>
        <time>2023-09-24T11:51:37.000Z</time>
      </trkpt>
      <trkpt lat="42.471857" lon="-8.638134">
        <ele>58.89501</ele>
        <time>2023-09-24T11:51:40.000Z</time>
      </trkpt>
      <trkpt lat="42.471948" lon="-8.638129">
        <ele>58.657759</ele>
        <time>2023-09-24T11:51:41.000Z</time>
      </trkpt>
      <trkpt lat="42.472201" lon="-8.638166">
        <ele>57.941675</ele>
        <time>2023-09-24T11:51:44.000Z</time>
      </trkpt>
      <trkpt lat="42.472259" lon="-8.638179">
        <ele>57.759808</ele>
        <time>2023-09-24T11:51:45.000Z</time>
      </trkpt>
      <trkpt lat="42.472538" lon="-8.638283">
        <ele>57.003182</ele>
        <time>2023-09-24T11:51:48.000Z</time>
      </trkpt>
      <trkpt lat="42.472763" lon="-8.63844">
        <ele>56.265183</ele>
        <time>2023-09-24T11:51:51.000Z</time>
      </trkpt>
      <trkpt lat="42.472983" lon="-8.638694">
        <ele>55.877799</ele>
        <time>2023-09-24T11:51:54.000Z</time>
      </trkpt>
      <trkpt lat="42.473152" lon="-8.638937">
        <ele>56.200374</ele>
        <time>2023-09-24T11:51:57.000Z</time>
      </trkpt>
      <trkpt lat="42.473256" lon="-8.639124">
        <ele>56.425876</ele>
        <time>2023-09-24T11:51:59.000Z</time>
      </trkpt>
      <trkpt lat="42.473349" lon="-8.639429">
        <ele>56.760375</ele>
        <time>2023-09-24T11:52:02.000Z</time>
      </trkpt>
      <trkpt lat="42.473421" lon="-8.639977">
        <ele>57.316974</ele>
        <time>2023-09-24T11:52:07.000Z</time>
      </trkpt>
      <trkpt lat="42.473459" lon="-8.640294">
        <ele>57.643182</ele>
        <time>2023-09-24T11:52:10.000Z</time>
      </trkpt>
      <trkpt lat="42.473461" lon="-8.640592">
        <ele>57.926417</ele>
        <time>2023-09-24T11:52:12.000Z</time>
      </trkpt>
      <trkpt lat="42.473584" lon="-8.641917">
        <ele>61.490953</ele>
        <time>2023-09-24T11:52:23.000Z</time>
      </trkpt>
      <trkpt lat="42.473798" lon="-8.642707">
        <ele>64.050551</ele>
        <time>2023-09-24T11:52:30.000Z</time>
      </trkpt>
      <trkpt lat="42.473824" lon="-8.642805">
        <ele>64.396908</ele>
        <time>2023-09-24T11:52:31.000Z</time>
      </trkpt>
      <trkpt lat="42.473849" lon="-8.64297">
        <ele>64.918475</ele>
        <time>2023-09-24T11:52:32.000Z</time>
      </trkpt>
      <trkpt lat="42.47424" lon="-8.64416">
        <ele>69.758611</ele>
        <time>2023-09-24T11:52:43.000Z</time>
      </trkpt>
      <trkpt lat="42.474409" lon="-8.64446">
        <ele>71.195809</ele>
        <time>2023-09-24T11:52:46.000Z</time>
      </trkpt>
      <trkpt lat="42.474468" lon="-8.644569">
        <ele>71.702056</ele>
        <time>2023-09-24T11:52:47.000Z</time>
      </trkpt>
      <trkpt lat="42.474773" lon="-8.64493">
        <ele>73.872203</ele>
        <time>2023-09-24T11:52:52.000Z</time>
      </trkpt>
      <trkpt lat="42.475018" lon="-8.645107">
        <ele>75.616464</ele>
        <time>2023-09-24T11:52:55.000Z</time>
      </trkpt>
      <trkpt lat="42.475289" lon="-8.645224">
        <ele>78.33109</ele>
        <time>2023-09-24T11:52:58.000Z</time>
      </trkpt>
      <trkpt lat="42.475699" lon="-8.645282">
        <ele>82.456089</ele>
        <time>2023-09-24T11:53:03.000Z</time>
      </trkpt>
      <trkpt lat="42.47577" lon="-8.645248">
        <ele>83.136473</ele>
        <time>2023-09-24T11:53:04.000Z</time>
      </trkpt>
      <trkpt lat="42.475799" lon="-8.645244">
        <ele>83.49769</ele>
        <time>2023-09-24T11:53:04.000Z</time>
      </trkpt>
      <trkpt lat="42.476057" lon="-8.645137">
        <ele>86.171665</ele>
        <time>2023-09-24T11:53:07.000Z</time>
      </trkpt>
      <trkpt lat="42.47609" lon="-8.645133">
        <ele>86.469764</ele>
        <time>2023-09-24T11:53:07.000Z</time>
      </trkpt>
      <trkpt lat="42.47648" lon="-8.644789">
        <ele>91.053531</ele>
        <time>2023-09-24T11:53:12.000Z</time>
      </trkpt>
      <trkpt lat="42.47661" lon="-8.644673">
        <ele>92.594986</ele>
        <time>2023-09-24T11:53:14.000Z</time>
      </trkpt>
      <trkpt lat="42.477469" lon="-8.643793">
        <ele>105.246821</ele>
        <time>2023-09-24T11:53:26.000Z</time>
      </trkpt>
      <trkpt lat="42.477539" lon="-8.643721">
        <ele>106.328618</ele>
        <time>2023-09-24T11:53:27.000Z</time>
      </trkpt>
      <trkpt lat="42.477889" lon="-8.643307">
        <ele>111.699466</ele>
        <time>2023-09-24T11:53:32.000Z</time>
      </trkpt>
      <trkpt lat="42.478618" lon="-8.64259">
        <ele>118.026396</ele>
        <time>2023-09-24T11:53:42.000Z</time>
      </trkpt>
      <trkpt lat="42.478873" lon="-8.642393">
        <ele>119.682173</ele>
        <time>2023-09-24T11:53:45.000Z</time>
      </trkpt>
      <trkpt lat="42.47918" lon="-8.642306">
        <ele>121.510964</ele>
        <time>2023-09-24T11:53:48.000Z</time>
      </trkpt>
      <trkpt lat="42.479697" lon="-8.642293">
        <ele>124.388796</ele>
        <time>2023-09-24T11:53:54.000Z</time>
      </trkpt>
      <trkpt lat="42.480244" lon="-8.642178">
        <ele>126.079085</ele>
        <time>2023-09-24T11:54:00.000Z</time>
      </trkpt>
      <trkpt lat="42.480644" lon="-8.642001">
        <ele>127.327875</ele>
        <time>2023-09-24T11:54:05.000Z</time>
      </trkpt>
      <trkpt lat="42.481201" lon="-8.641691">
        <ele>129.178687</ele>
        <time>2023-09-24T11:54:12.000Z</time>
      </trkpt>
      <trkpt lat="42.481619" lon="-8.641646">
        <ele>130.682155</ele>
        <time>2023-09-24T11:54:17.000Z</time>
      </trkpt>
      <trkpt lat="42.481875" lon="-8.641602">
        <ele>131.727381</ele>
        <time>2023-09-24T11:54:20.000Z</time>
      </trkpt>
      <trkpt lat="42.482241" lon="-8.641658">
        <ele>133.191472</ele>
        <time>2023-09-24T11:54:24.000Z</time>
      </trkpt>
      <trkpt lat="42.482484" lon="-8.641767">
        <ele>134.26638</ele>
        <time>2023-09-24T11:54:27.000Z</time>
      </trkpt>
      <trkpt lat="42.482694" lon="-8.641884">
        <ele>135.149869</ele>
        <time>2023-09-24T11:54:30.000Z</time>
      </trkpt>
      <trkpt lat="42.482978" lon="-8.642091">
        <ele>136.49582</ele>
        <time>2023-09-24T11:54:34.000Z</time>
      </trkpt>
      <trkpt lat="42.483215" lon="-8.642367">
        <ele>138.175095</ele>
        <time>2023-09-24T11:54:37.000Z</time>
      </trkpt>
      <trkpt lat="42.483277" lon="-8.642485">
        <ele>138.974811</ele>
        <time>2023-09-24T11:54:38.000Z</time>
      </trkpt>
      <trkpt lat="42.483279" lon="-8.642503">
        <ele>139.03669</ele>
        <time>2023-09-24T11:54:38.000Z</time>
      </trkpt>
      <trkpt lat="42.483707" lon="-8.642971">
        <ele>142.989828</ele>
        <time>2023-09-24T11:54:44.000Z</time>
      </trkpt>
      <trkpt lat="42.484098" lon="-8.643264">
        <ele>146.185972</ele>
        <time>2023-09-24T11:54:49.000Z</time>
      </trkpt>
      <trkpt lat="42.484668" lon="-8.643405">
        <ele>150.370265</ele>
        <time>2023-09-24T11:54:55.000Z</time>
      </trkpt>
      <trkpt lat="42.485941" lon="-8.643357">
        <ele>162.78775</ele>
        <time>2023-09-24T11:55:09.000Z</time>
      </trkpt>
      <trkpt lat="42.486495" lon="-8.643204">
        <ele>167.617557</ele>
        <time>2023-09-24T11:55:15.000Z</time>
      </trkpt>
      <trkpt lat="42.486875" lon="-8.642952">
        <ele>169.279834</ele>
        <time>2023-09-24T11:55:20.000Z</time>
      </trkpt>
      <trkpt lat="42.487227" lon="-8.642677">
        <ele>170.921313</ele>
        <time>2023-09-24T11:55:25.000Z</time>
      </trkpt>
      <trkpt lat="42.488131" lon="-8.641836">
        <ele>173.871939</ele>
        <time>2023-09-24T11:55:37.000Z</time>
      </trkpt>
      <trkpt lat="42.488841" lon="-8.641113">
        <ele>171.754033</ele>
        <time>2023-09-24T11:55:47.000Z</time>
      </trkpt>
      <trkpt lat="42.489294" lon="-8.640761">
        <ele>170.537486</ele>
        <time>2023-09-24T11:55:53.000Z</time>
      </trkpt>
      <trkpt lat="42.489512" lon="-8.640643">
        <ele>170.139681</ele>
        <time>2023-09-24T11:55:56.000Z</time>
      </trkpt>
      <trkpt lat="42.489775" lon="-8.640564">
        <ele>170.173845</ele>
        <time>2023-09-24T11:55:59.000Z</time>
      </trkpt>
      <trkpt lat="42.489965" lon="-8.640514">
        <ele>170.197137</ele>
        <time>2023-09-24T11:56:01.000Z</time>
      </trkpt>
      <trkpt lat="42.490467" lon="-8.640485">
        <ele>170.258898</ele>
        <time>2023-09-24T11:56:07.000Z</time>
      </trkpt>
      <trkpt lat="42.492047" lon="-8.640607">
        <ele>173.399777</ele>
        <time>2023-09-24T11:56:25.000Z</time>
      </trkpt>
      <trkpt lat="42.494565" lon="-8.640796">
        <ele>183.658691</ele>
        <time>2023-09-24T11:56:53.000Z</time>
      </trkpt>
      <trkpt lat="42.494896" lon="-8.640701">
        <ele>184.660262</ele>
        <time>2023-09-24T11:56:57.000Z</time>
      </trkpt>
      <trkpt lat="42.495207" lon="-8.640484">
        <ele>184.398578</ele>
        <time>2023-09-24T11:57:01.000Z</time>
      </trkpt>
      <trkpt lat="42.495682" lon="-8.63986">
        <ele>183.898555</ele>
        <time>2023-09-24T11:57:08.000Z</time>
      </trkpt>
      <trkpt lat="42.495822" lon="-8.639684">
        <ele>183.750406</ele>
        <time>2023-09-24T11:57:10.000Z</time>
      </trkpt>
      <trkpt lat="42.496156" lon="-8.639387">
        <ele>183.450177</ele>
        <time>2023-09-24T11:57:14.000Z</time>
      </trkpt>
      <trkpt lat="42.496392" lon="-8.639236">
        <ele>182.854947</ele>
        <time>2023-09-24T11:57:17.000Z</time>
      </trkpt>
      <trkpt lat="42.496735" lon="-8.639215">
        <ele>181.714562</ele>
        <time>2023-09-24T11:57:21.000Z</time>
      </trkpt>
      <trkpt lat="42.497126" lon="-8.63929">
        <ele>180.36477</ele>
        <time>2023-09-24T11:57:25.000Z</time>
      </trkpt>
      <trkpt lat="42.497437" lon="-8.639512">
        <ele>179.138824</ele>
        <time>2023-09-24T11:57:29.000Z</time>
      </trkpt>
      <trkpt lat="42.497573" lon="-8.639595">
        <ele>178.610082</ele>
        <time>2023-09-24T11:57:31.000Z</time>
      </trkpt>
      <trkpt lat="42.497666" lon="-8.639698">
        <ele>178.193645</ele>
        <time>2023-09-24T11:57:32.000Z</time>
      </trkpt>
      <trkpt lat="42.498542" lon="-8.640915">
        <ele>178.244144</ele>
        <time>2023-09-24T11:57:46.000Z</time>
      </trkpt>
      <trkpt lat="42.49888" lon="-8.641273">
        <ele>178.742942</ele>
        <time>2023-09-24T11:57:51.000Z</time>
      </trkpt>
      <trkpt lat="42.499278" lon="-8.641575">
        <ele>179.198324</ele>
        <time>2023-09-24T11:57:56.000Z</time>
      </trkpt>
      <trkpt lat="42.499731" lon="-8.641762">
        <ele>179.125026</ele>
        <time>2023-09-24T11:58:01.000Z</time>
      </trkpt>
      <trkpt lat="42.500141" lon="-8.641845">
        <ele>179.060569</ele>
        <time>2023-09-24T11:58:06.000Z</time>
      </trkpt>
      <trkpt lat="42.50264" lon="-8.641789">
        <ele>175.356977</ele>
        <time>2023-09-24T11:58:34.000Z</time>
      </trkpt>
      <trkpt lat="42.502898" lon="-8.64186">
        <ele>174.687474</ele>
        <time>2023-09-24T11:58:37.000Z</time>
      </trkpt>
      <trkpt lat="42.50316" lon="-8.641983">
        <ele>173.784693</ele>
        <time>2023-09-24T11:58:40.000Z</time>
      </trkpt>
      <trkpt lat="42.503422" lon="-8.642161">
        <ele>172.853664</ele>
        <time>2023-09-24T11:58:43.000Z</time>
      </trkpt>
      <trkpt lat="42.503614" lon="-8.642336">
        <ele>172.107219</ele>
        <time>2023-09-24T11:58:46.000Z</time>
      </trkpt>
      <trkpt lat="42.504124" lon="-8.64278">
        <ele>170.136346</ele>
        <time>2023-09-24T11:58:53.000Z</time>
      </trkpt>
      <trkpt lat="42.504547" lon="-8.643012">
        <ele>169.154314</ele>
        <time>2023-09-24T11:58:58.000Z</time>
      </trkpt>
      <trkpt lat="42.505288" lon="-8.643302">
        <ele>168.940685</ele>
        <time>2023-09-24T11:59:07.000Z</time>
      </trkpt>
      <trkpt lat="42.50528" lon="-8.643289">
        <ele>168.939818</ele>
        <time>2023-09-24T11:59:07.000Z</time>
      </trkpt>
      <trkpt lat="42.50584" lon="-8.643503">
        <ele>168.778887</ele>
        <time>2023-09-24T11:59:13.000Z</time>
      </trkpt>
      <trkpt lat="42.505857" lon="-8.643518">
        <ele>168.774836</ele>
        <time>2023-09-24T11:59:13.000Z</time>
      </trkpt>
      <trkpt lat="42.507176" lon="-8.644027">
        <ele>168.866158</ele>
        <time>2023-09-24T11:59:28.000Z</time>
      </trkpt>
      <trkpt lat="42.505844" lon="-8.643508">
        <ele>168.82615</ele>
        <time>2023-09-24T11:59:43.000Z</time>
      </trkpt>
      <trkpt lat="42.505831" lon="-8.643506">
        <ele>168.822948</ele>
        <time>2023-09-24T11:59:43.000Z</time>
      </trkpt>
      <trkpt lat="42.505281" lon="-8.643289">
        <ele>168.696726</ele>
        <time>2023-09-24T11:59:49.000Z</time>
      </trkpt>
      <trkpt lat="42.50528" lon="-8.643304">
        <ele>168.696042</ele>
        <time>2023-09-24T11:59:49.000Z</time>
      </trkpt>
      <trkpt lat="42.504539" lon="-8.643024">
        <ele>169.239614</ele>
        <time>2023-09-24T11:59:58.000Z</time>
      </trkpt>
      <trkpt lat="42.504136" lon="-8.642778">
        <ele>170.521603</ele>
        <time>2023-09-24T12:00:03.000Z</time>
      </trkpt>
      <trkpt lat="42.503616" lon="-8.642328">
        <ele>172.256236</ele>
        <time>2023-09-24T12:00:10.000Z</time>
      </trkpt>
      <trkpt lat="42.503415" lon="-8.64215">
        <ele>172.913201</ele>
        <time>2023-09-24T12:00:13.000Z</time>
      </trkpt>
      <trkpt lat="42.503154" lon="-8.641968">
        <ele>173.725878</ele>
        <time>2023-09-24T12:00:16.000Z</time>
      </trkpt>
      <trkpt lat="42.502899" lon="-8.64185">
        <ele>174.435547</ele>
        <time>2023-09-24T12:00:19.000Z</time>
      </trkpt>
      <trkpt lat="42.502634" lon="-8.641801">
        <ele>175.099321</ele>
        <time>2023-09-24T12:00:22.000Z</time>
      </trkpt>
      <trkpt lat="42.500137" lon="-8.641842">
        <ele>179.328901</ele>
        <time>2023-09-24T12:00:50.000Z</time>
      </trkpt>
      <trkpt lat="42.499716" lon="-8.641764">
        <ele>179.692659</ele>
        <time>2023-09-24T12:00:55.000Z</time>
      </trkpt>
      <trkpt lat="42.499278" lon="-8.641568">
        <ele>179.233854</ele>
        <time>2023-09-24T12:01:00.000Z</time>
      </trkpt>
      <trkpt lat="42.49889" lon="-8.641272">
        <ele>178.551155</ele>
        <time>2023-09-24T12:01:05.000Z</time>
      </trkpt>
      <trkpt lat="42.49853" lon="-8.640925">
        <ele>177.869353</ele>
        <time>2023-09-24T12:01:10.000Z</time>
      </trkpt>
      <trkpt lat="42.497661" lon="-8.639703">
        <ele>178.787076</ele>
        <time>2023-09-24T12:01:24.000Z</time>
      </trkpt>
      <trkpt lat="42.49757" lon="-8.639601">
        <ele>179.097206</ele>
        <time>2023-09-24T12:01:25.000Z</time>
      </trkpt>
      <trkpt lat="42.497438" lon="-8.639503">
        <ele>179.490956</ele>
        <time>2023-09-24T12:01:27.000Z</time>
      </trkpt>
      <trkpt lat="42.49712" lon="-8.639287">
        <ele>180.403939</ele>
        <time>2023-09-24T12:01:31.000Z</time>
      </trkpt>
      <trkpt lat="42.496738" lon="-8.639214">
        <ele>181.409135</ele>
        <time>2023-09-24T12:01:35.000Z</time>
      </trkpt>
      <trkpt lat="42.496394" lon="-8.639228">
        <ele>182.172609</ele>
        <time>2023-09-24T12:01:39.000Z</time>
      </trkpt>
      <trkpt lat="42.496161" lon="-8.639387">
        <ele>182.748578</ele>
        <time>2023-09-24T12:01:42.000Z</time>
      </trkpt>
      <trkpt lat="42.495836" lon="-8.639669">
        <ele>183.630787</ele>
        <time>2023-09-24T12:01:46.000Z</time>
      </trkpt>
      <trkpt lat="42.495678" lon="-8.639858">
        <ele>184.06612</ele>
        <time>2023-09-24T12:01:48.000Z</time>
      </trkpt>
      <trkpt lat="42.495205" lon="-8.64048">
        <ele>185.535413</ele>
        <time>2023-09-24T12:01:55.000Z</time>
      </trkpt>
      <trkpt lat="42.494903" lon="-8.6407">
        <ele>184.441498</ele>
        <time>2023-09-24T12:01:59.000Z</time>
      </trkpt>
      <trkpt lat="42.494569" lon="-8.64079">
        <ele>183.194567</ele>
        <time>2023-09-24T12:02:03.000Z</time>
      </trkpt>
      <trkpt lat="42.492059" lon="-8.640615">
        <ele>173.243317</ele>
        <time>2023-09-24T12:02:31.000Z</time>
      </trkpt>
      <trkpt lat="42.490462" lon="-8.640486">
        <ele>170.080773</ele>
        <time>2023-09-24T12:02:49.000Z</time>
      </trkpt>
      <trkpt lat="42.489969" lon="-8.64051">
        <ele>169.481902</ele>
        <time>2023-09-24T12:02:54.000Z</time>
      </trkpt>
      <trkpt lat="42.489793" lon="-8.640554">
        <ele>169.440724</ele>
        <time>2023-09-24T12:02:56.000Z</time>
      </trkpt>
      <trkpt lat="42.489518" lon="-8.640659">
        <ele>170.151577</ele>
        <time>2023-09-24T12:02:59.000Z</time>
      </trkpt>
      <trkpt lat="42.489288" lon="-8.640762">
        <ele>170.791389</ele>
        <time>2023-09-24T12:03:02.000Z</time>
      </trkpt>
      <trkpt lat="42.488846" lon="-8.641101">
        <ele>172.12412</ele>
        <time>2023-09-24T12:03:08.000Z</time>
      </trkpt>
      <trkpt lat="42.488137" lon="-8.641834">
        <ele>173.649869</ele>
        <time>2023-09-24T12:03:18.000Z</time>
      </trkpt>
      <trkpt lat="42.487228" lon="-8.642693">
        <ele>171.265528</ele>
        <time>2023-09-24T12:03:30.000Z</time>
      </trkpt>
      <trkpt lat="42.48687" lon="-8.642965">
        <ele>170.376503</ele>
        <time>2023-09-24T12:03:35.000Z</time>
      </trkpt>
      <trkpt lat="42.486492" lon="-8.643204">
        <ele>167.340705</ele>
        <time>2023-09-24T12:03:40.000Z</time>
      </trkpt>
      <trkpt lat="42.485948" lon="-8.64336">
        <ele>162.2717</ele>
        <time>2023-09-24T12:03:46.000Z</time>
      </trkpt>
      <trkpt lat="42.484656" lon="-8.643393">
        <ele>150.790015</ele>
        <time>2023-09-24T12:04:00.000Z</time>
      </trkpt>
      <trkpt lat="42.484105" lon="-8.643266">
        <ele>146.060029</ele>
        <time>2023-09-24T12:04:06.000Z</time>
      </trkpt>
      <trkpt lat="42.483703" lon="-8.642975">
        <ele>142.32897</ele>
        <time>2023-09-24T12:04:11.000Z</time>
      </trkpt>
      <trkpt lat="42.483285" lon="-8.642502">
        <ele>138.158693</ele>
        <time>2023-09-24T12:04:17.000Z</time>
      </trkpt>
      <trkpt lat="42.483271" lon="-8.642494">
        <ele>138.119052</ele>
        <time>2023-09-24T12:04:17.000Z</time>
      </trkpt>
      <trkpt lat="42.482812" lon="-8.642086">
        <ele>135.608485</ele>
        <time>2023-09-24T12:04:23.000Z</time>
      </trkpt>
      <trkpt lat="42.482622" lon="-8.641948">
        <ele>134.631593</ele>
        <time>2023-09-24T12:04:25.000Z</time>
      </trkpt>
      <trkpt lat="42.481959" lon="-8.641681">
        <ele>131.532785</ele>
        <time>2023-09-24T12:04:33.000Z</time>
      </trkpt>
      <trkpt lat="42.481619" lon="-8.641646">
        <ele>130.148388</ele>
        <time>2023-09-24T12:04:37.000Z</time>
      </trkpt>
      <trkpt lat="42.481206" lon="-8.641709">
        <ele>128.915111</ele>
        <time>2023-09-24T12:04:42.000Z</time>
      </trkpt>
      <trkpt lat="42.480628" lon="-8.642003">
        <ele>127.149846</ele>
        <time>2023-09-24T12:04:49.000Z</time>
      </trkpt>
      <trkpt lat="42.480255" lon="-8.642179">
        <ele>125.958798</ele>
        <time>2023-09-24T12:04:53.000Z</time>
      </trkpt>
      <trkpt lat="42.479705" lon="-8.642285">
        <ele>123.818601</ele>
        <time>2023-09-24T12:04:59.000Z</time>
      </trkpt>
      <trkpt lat="42.479187" lon="-8.642305">
        <ele>121.404058</ele>
        <time>2023-09-24T12:05:05.000Z</time>
      </trkpt>
      <trkpt lat="42.478873" lon="-8.642397">
        <ele>119.912682</ele>
        <time>2023-09-24T12:05:09.000Z</time>
      </trkpt>
      <trkpt lat="42.478614" lon="-8.642591">
        <ele>118.562408</ele>
        <time>2023-09-24T12:05:12.000Z</time>
      </trkpt>
      <trkpt lat="42.477896" lon="-8.643306">
        <ele>111.001794</ele>
        <time>2023-09-24T12:05:22.000Z</time>
      </trkpt>
      <trkpt lat="42.477543" lon="-8.643723">
        <ele>105.997265</ele>
        <time>2023-09-24T12:05:27.000Z</time>
      </trkpt>
      <trkpt lat="42.477487" lon="-8.643807">
        <ele>104.989252</ele>
        <time>2023-09-24T12:05:28.000Z</time>
      </trkpt>
      <trkpt lat="42.476616" lon="-8.644674">
        <ele>93.178465</ele>
        <time>2023-09-24T12:05:40.000Z</time>
      </trkpt>
      <trkpt lat="42.476477" lon="-8.644786">
        <ele>91.485751</ele>
        <time>2023-09-24T12:05:42.000Z</time>
      </trkpt>
      <trkpt lat="42.476087" lon="-8.645122">
        <ele>86.452261</ele>
        <time>2023-09-24T12:05:47.000Z</time>
      </trkpt>
      <trkpt lat="42.476056" lon="-8.64513">
        <ele>86.124916</ele>
        <time>2023-09-24T12:05:47.000Z</time>
      </trkpt>
      <trkpt lat="42.475804" lon="-8.645232">
        <ele>83.188601</ele>
        <time>2023-09-24T12:05:50.000Z</time>
      </trkpt>
      <trkpt lat="42.475768" lon="-8.645258">
        <ele>82.791924</ele>
        <time>2023-09-24T12:05:50.000Z</time>
      </trkpt>
      <trkpt lat="42.475694" lon="-8.645271">
        <ele>82.044798</ele>
        <time>2023-09-24T12:05:51.000Z</time>
      </trkpt>
      <trkpt lat="42.475289" lon="-8.645219">
        <ele>77.566993</ele>
        <time>2023-09-24T12:05:56.000Z</time>
      </trkpt>
      <trkpt lat="42.475035" lon="-8.645095">
        <ele>75.968859</ele>
        <time>2023-09-24T12:05:59.000Z</time>
      </trkpt>
      <trkpt lat="42.474776" lon="-8.644936">
        <ele>74.310378</ele>
        <time>2023-09-24T12:06:02.000Z</time>
      </trkpt>
      <trkpt lat="42.47446" lon="-8.644569">
        <ele>71.907195</ele>
        <time>2023-09-24T12:06:07.000Z</time>
      </trkpt>
      <trkpt lat="42.474399" lon="-8.644454">
        <ele>71.346586</ele>
        <time>2023-09-24T12:06:08.000Z</time>
      </trkpt>
      <trkpt lat="42.474253" lon="-8.644159">
        <ele>69.755042</ele>
        <time>2023-09-24T12:06:11.000Z</time>
      </trkpt>
      <trkpt lat="42.473856" lon="-8.642973">
        <ele>64.948789</ele>
        <time>2023-09-24T12:06:22.000Z</time>
      </trkpt>
      <trkpt lat="42.473827" lon="-8.64281">
        <ele>64.404555</ele>
        <time>2023-09-24T12:06:23.000Z</time>
      </trkpt>
      <trkpt lat="42.4738" lon="-8.642707">
        <ele>64.04315</ele>
        <time>2023-09-24T12:06:24.000Z</time>
      </trkpt>
      <trkpt lat="42.473581" lon="-8.641905">
        <ele>61.372307</ele>
        <time>2023-09-24T12:06:31.000Z</time>
      </trkpt>
      <trkpt lat="42.473477" lon="-8.640588">
        <ele>58.194758</ele>
        <time>2023-09-24T12:06:42.000Z</time>
      </trkpt>
      <trkpt lat="42.473325" lon="-8.639654">
        <ele>56.616609</ele>
        <time>2023-09-24T12:06:50.000Z</time>
      </trkpt>
      <trkpt lat="42.47324" lon="-8.639281">
        <ele>55.966169</ele>
        <time>2023-09-24T12:06:53.000Z</time>
      </trkpt>
      <trkpt lat="42.472989" lon="-8.6387">
        <ele>55.814581</ele>
        <time>2023-09-24T12:06:59.000Z</time>
      </trkpt>
      <trkpt lat="42.472771" lon="-8.638451">
        <ele>56.504131</ele>
        <time>2023-09-24T12:07:02.000Z</time>
      </trkpt>
      <trkpt lat="42.472534" lon="-8.638288">
        <ele>57.148129</ele>
        <time>2023-09-24T12:07:05.000Z</time>
      </trkpt>
      <trkpt lat="42.472202" lon="-8.638165">
        <ele>57.967122</ele>
        <time>2023-09-24T12:07:09.000Z</time>
      </trkpt>
      <trkpt lat="42.472131" lon="-8.638152">
        <ele>58.135353</ele>
        <time>2023-09-24T12:07:10.000Z</time>
      </trkpt>
      <trkpt lat="42.471935" lon="-8.638117">
        <ele>58.59199</ele>
        <time>2023-09-24T12:07:12.000Z</time>
      </trkpt>
      <trkpt lat="42.471861" lon="-8.638141">
        <ele>58.799034</ele>
        <time>2023-09-24T12:07:13.000Z</time>
      </trkpt>
      <trkpt lat="42.47162" lon="-8.638175">
        <ele>59.358961</ele>
        <time>2023-09-24T12:07:16.000Z</time>
      </trkpt>
      <trkpt lat="42.471276" lon="-8.638384">
        <ele>60.007812</ele>
        <time>2023-09-24T12:07:20.000Z</time>
      </trkpt>
      <trkpt lat="42.470957" lon="-8.638801">
        <ele>60.634109</ele>
        <time>2023-09-24T12:07:25.000Z</time>
      </trkpt>
      <trkpt lat="42.470874" lon="-8.638974">
        <ele>60.827632</ele>
        <time>2023-09-24T12:07:27.000Z</time>
      </trkpt>
      <trkpt lat="42.470519" lon="-8.639736">
        <ele>61.781254</ele>
        <time>2023-09-24T12:07:34.000Z</time>
      </trkpt>
      <trkpt lat="42.470034" lon="-8.640693">
        <ele>61.526126</ele>
        <time>2023-09-24T12:07:44.000Z</time>
      </trkpt>
      <trkpt lat="42.46997" lon="-8.640761">
        <ele>61.439953</ele>
        <time>2023-09-24T12:07:45.000Z</time>
      </trkpt>
      <trkpt lat="42.469914" lon="-8.640918">
        <ele>61.308726</ele>
        <time>2023-09-24T12:07:46.000Z</time>
      </trkpt>
      <trkpt lat="42.46929" lon="-8.642083">
        <ele>60.062885</ele>
        <time>2023-09-24T12:07:58.000Z</time>
      </trkpt>
      <trkpt lat="42.469161" lon="-8.642356">
        <ele>59.389593</ele>
        <time>2023-09-24T12:08:01.000Z</time>
      </trkpt>
      <trkpt lat="42.468991" lon="-8.642652">
        <ele>58.59925</ele>
        <time>2023-09-24T12:08:04.000Z</time>
      </trkpt>
      <trkpt lat="42.468788" lon="-8.642853">
        <ele>57.884695</ele>
        <time>2023-09-24T12:08:07.000Z</time>
      </trkpt>
      <trkpt lat="42.468572" lon="-8.642956">
        <ele>57.195732</ele>
        <time>2023-09-24T12:08:10.000Z</time>
      </trkpt>
      <trkpt lat="42.46847" lon="-8.642994">
        <ele>56.903297</ele>
        <time>2023-09-24T12:08:11.000Z</time>
      </trkpt>
      <trkpt lat="42.468165" lon="-8.642985">
        <ele>56.001147</ele>
        <time>2023-09-24T12:08:14.000Z</time>
      </trkpt>
      <trkpt lat="42.468023" lon="-8.642955">
        <ele>55.608568</ele>
        <time>2023-09-24T12:08:16.000Z</time>
      </trkpt>
      <trkpt lat="42.466694" lon="-8.642737">
        <ele>50.554918</ele>
        <time>2023-09-24T12:08:31.000Z</time>
      </trkpt>
      <trkpt lat="42.465824" lon="-8.642614">
        <ele>47.617528</ele>
        <time>2023-09-24T12:08:41.000Z</time>
      </trkpt>
      <trkpt lat="42.465434" lon="-8.642559">
        <ele>46.916777</ele>
        <time>2023-09-24T12:08:45.000Z</time>
      </trkpt>
      <trkpt lat="42.465139" lon="-8.642496">
        <ele>46.362567</ele>
        <time>2023-09-24T12:08:48.000Z</time>
      </trkpt>
      <trkpt lat="42.464484" lon="-8.642336">
        <ele>45.163995</ele>
        <time>2023-09-24T12:08:55.000Z</time>
      </trkpt>
      <trkpt lat="42.463966" lon="-8.642262">
        <ele>44.078799</ele>
        <time>2023-09-24T12:09:01.000Z</time>
      </trkpt>
      <trkpt lat="42.462793" lon="-8.64216">
        <ele>41.423291</ele>
        <time>2023-09-24T12:09:14.000Z</time>
      </trkpt>
      <trkpt lat="42.462549" lon="-8.64211">
        <ele>40.860045</ele>
        <time>2023-09-24T12:09:17.000Z</time>
      </trkpt>
      <trkpt lat="42.462344" lon="-8.642042">
        <ele>40.331213</ele>
        <time>2023-09-24T12:09:19.000Z</time>
      </trkpt>
      <trkpt lat="42.461643" lon="-8.641698">
        <ele>38.527635</ele>
        <time>2023-09-24T12:09:27.000Z</time>
      </trkpt>
      <trkpt lat="42.458663" lon="-8.640228">
        <ele>33.259053</ele>
        <time>2023-09-24T12:10:02.000Z</time>
      </trkpt>
      <trkpt lat="42.457663" lon="-8.640047">
        <ele>32.787964</ele>
        <time>2023-09-24T12:10:13.000Z</time>
      </trkpt>
      <trkpt lat="42.455307" lon="-8.639609">
        <ele>34.323114</ele>
        <time>2023-09-24T12:10:39.000Z</time>
      </trkpt>
      <trkpt lat="42.454577" lon="-8.639456">
        <ele>34.032959</ele>
        <time>2023-09-24T12:10:47.000Z</time>
      </trkpt>
      <trkpt lat="42.453607" lon="-8.639068">
        <ele>33.330131</ele>
        <time>2023-09-24T12:10:58.000Z</time>
      </trkpt>
      <trkpt lat="42.452321" lon="-8.638531">
        <ele>30.824147</ele>
        <time>2023-09-24T12:11:13.000Z</time>
      </trkpt>
      <trkpt lat="42.451957" lon="-8.638413">
        <ele>30.526453</ele>
        <time>2023-09-24T12:11:17.000Z</time>
      </trkpt>
      <trkpt lat="42.451717" lon="-8.638277">
        <ele>30.873536</ele>
        <time>2023-09-24T12:11:20.000Z</time>
      </trkpt>
      <trkpt lat="42.451167" lon="-8.637948">
        <ele>31.724823</ele>
        <time>2023-09-24T12:11:27.000Z</time>
      </trkpt>
      <trkpt lat="42.451071" lon="-8.637905">
        <ele>31.865861</ele>
        <time>2023-09-24T12:11:28.000Z</time>
      </trkpt>
      <trkpt lat="42.450979" lon="-8.637873">
        <ele>31.998776</ele>
        <time>2023-09-24T12:11:29.000Z</time>
      </trkpt>
      <trkpt lat="42.4509" lon="-8.6378">
        <ele>32.120016</ele>
        <time>2023-09-24T12:11:30.000Z</time>
      </trkpt>
      <trkpt lat="42.450872" lon="-8.637612">
        <ele>32.311324</ele>
        <time>2023-09-24T12:11:32.000Z</time>
      </trkpt>
      <trkpt lat="42.45092" lon="-8.637464">
        <ele>32.470944</ele>
        <time>2023-09-24T12:11:33.000Z</time>
      </trkpt>
      <trkpt lat="42.450939" lon="-8.637283">
        <ele>32.656568</ele>
        <time>2023-09-24T12:11:35.000Z</time>
      </trkpt>
      <trkpt lat="42.450887" lon="-8.637151">
        <ele>32.814163</ele>
        <time>2023-09-24T12:11:36.000Z</time>
      </trkpt>
      <trkpt lat="42.450824" lon="-8.637013">
        <ele>33.040778</ele>
        <time>2023-09-24T12:11:37.000Z</time>
      </trkpt>
      <trkpt lat="42.450612" lon="-8.636777">
        <ele>33.57778</ele>
        <time>2023-09-24T12:11:40.000Z</time>
      </trkpt>
      <trkpt lat="42.450309" lon="-8.636534">
        <ele>34.261066</ele>
        <time>2023-09-24T12:11:44.000Z</time>
      </trkpt>
      <trkpt lat="42.449889" lon="-8.636309">
        <ele>35.124998</ele>
        <time>2023-09-24T12:11:49.000Z</time>
      </trkpt>
      <trkpt lat="42.449603" lon="-8.63628">
        <ele>35.695651</ele>
        <time>2023-09-24T12:11:52.000Z</time>
      </trkpt>
      <trkpt lat="42.4491" lon="-8.636355">
        <ele>36.276206</ele>
        <time>2023-09-24T12:11:58.000Z</time>
      </trkpt>
      <trkpt lat="42.448115" lon="-8.636737">
        <ele>35.832454</ele>
        <time>2023-09-24T12:12:09.000Z</time>
      </trkpt>
      <trkpt lat="42.447537" lon="-8.636816">
        <ele>35.571708</ele>
        <time>2023-09-24T12:12:15.000Z</time>
      </trkpt>
      <trkpt lat="42.447191" lon="-8.636744">
        <ele>33.988172</ele>
        <time>2023-09-24T12:12:19.000Z</time>
      </trkpt>
      <trkpt lat="42.446898" lon="-8.636602">
        <ele>32.496428</ele>
        <time>2023-09-24T12:12:22.000Z</time>
      </trkpt>
      <trkpt lat="42.44635" lon="-8.636237">
        <ele>29.525403</ele>
        <time>2023-09-24T12:12:29.000Z</time>
      </trkpt>
      <trkpt lat="42.446358" lon="-8.636233">
        <ele>29.525402</ele>
        <time>2023-09-24T12:12:29.000Z</time>
      </trkpt>
      <trkpt lat="42.445815" lon="-8.636001">
        <ele>26.722557</ele>
        <time>2023-09-24T12:12:35.000Z</time>
      </trkpt>
      <trkpt lat="42.445387" lon="-8.635881">
        <ele>24.033933</ele>
        <time>2023-09-24T12:12:40.000Z</time>
      </trkpt>
      <trkpt lat="42.444997" lon="-8.635865">
        <ele>21.525597</ele>
        <time>2023-09-24T12:12:44.000Z</time>
      </trkpt>
      <trkpt lat="42.444567" lon="-8.635965">
        <ele>18.649101</ele>
        <time>2023-09-24T12:12:49.000Z</time>
      </trkpt>
      <trkpt lat="42.444054" lon="-8.636133">
        <ele>15.321497</ele>
        <time>2023-09-24T12:12:55.000Z</time>
      </trkpt>
      <trkpt lat="42.443263" lon="-8.63655">
        <ele>13.491349</ele>
        <time>2023-09-24T12:13:04.000Z</time>
      </trkpt>
      <trkpt lat="42.442755" lon="-8.636895">
        <ele>12.279795</ele>
        <time>2023-09-24T12:13:10.000Z</time>
      </trkpt>
      <trkpt lat="42.442036" lon="-8.637588">
        <ele>10.936338</ele>
        <time>2023-09-24T12:13:20.000Z</time>
      </trkpt>
      <trkpt lat="42.441308" lon="-8.638281">
        <ele>10.022196</ele>
        <time>2023-09-24T12:13:30.000Z</time>
      </trkpt>
      <trkpt lat="42.440556" lon="-8.638906">
        <ele>8.843854</ele>
        <time>2023-09-24T12:13:40.000Z</time>
      </trkpt>
      <trkpt lat="42.440126" lon="-8.639186">
        <ele>8.078887</ele>
        <time>2023-09-24T12:13:45.000Z</time>
      </trkpt>
      <trkpt lat="42.439711" lon="-8.639467">
        <ele>7.314449</ele>
        <time>2023-09-24T12:13:50.000Z</time>
      </trkpt>
      <trkpt lat="42.439039" lon="-8.639809">
        <ele>6.405245</ele>
        <time>2023-09-24T12:13:58.000Z</time>
      </trkpt>
      <trkpt lat="42.438371" lon="-8.640138">
        <ele>5.785943</ele>
        <time>2023-09-24T12:14:06.000Z</time>
      </trkpt>
      <trkpt lat="42.437716" lon="-8.640474">
        <ele>5.166861</ele>
        <time>2023-09-24T12:14:14.000Z</time>
      </trkpt>
      <trkpt lat="42.437568" lon="-8.640578">
        <ele>5.101119</ele>
        <time>2023-09-24T12:14:16.000Z</time>
      </trkpt>
      <trkpt lat="42.437527" lon="-8.64064">
        <ele>5.090215</ele>
        <time>2023-09-24T12:14:17.000Z</time>
      </trkpt>
      <trkpt lat="42.437428" lon="-8.640667">
        <ele>5.073568</ele>
        <time>2023-09-24T12:14:18.000Z</time>
      </trkpt>
      <trkpt lat="42.437199" lon="-8.640741">
        <ele>5.029964</ele>
        <time>2023-09-24T12:14:21.000Z</time>
      </trkpt>
      <trkpt lat="42.436801" lon="-8.640927">
        <ele>4.95443</ele>
        <time>2023-09-24T12:14:26.000Z</time>
      </trkpt>
      <trkpt lat="42.43644" lon="-8.641124">
        <ele>4.881042</ele>
        <time>2023-09-24T12:14:30.000Z</time>
      </trkpt>
      <trkpt lat="42.436223" lon="-8.641228">
        <ele>4.840641</ele>
        <time>2023-09-24T12:14:33.000Z</time>
      </trkpt>
      <trkpt lat="42.436211" lon="-8.641298">
        <ele>4.832911</ele>
        <time>2023-09-24T12:14:34.000Z</time>
      </trkpt>
      <trkpt lat="42.436119" lon="-8.641359">
        <ele>4.813779</ele>
        <time>2023-09-24T12:14:35.000Z</time>
      </trkpt>
      <trkpt lat="42.43608" lon="-8.641372">
        <ele>4.803871</ele>
        <time>2023-09-24T12:14:35.000Z</time>
      </trkpt>
      <trkpt lat="42.43604" lon="-8.64134">
        <ele>4.795929</ele>
        <time>2023-09-24T12:14:36.000Z</time>
      </trkpt>
      <trkpt lat="42.435405" lon="-8.64155">
        <ele>5.768434</ele>
        <time>2023-09-24T12:14:43.000Z</time>
      </trkpt>
      <trkpt lat="42.435297" lon="-8.641566">
        <ele>5.963073</ele>
        <time>2023-09-24T12:14:44.000Z</time>
      </trkpt>
      <trkpt lat="42.435235" lon="-8.64157">
        <ele>6.054887</ele>
        <time>2023-09-24T12:14:45.000Z</time>
      </trkpt>
      <trkpt lat="42.435201" lon="-8.641571">
        <ele>6.100027</ele>
        <time>2023-09-24T12:14:45.000Z</time>
      </trkpt>
      <trkpt lat="42.435161" lon="-8.641579">
        <ele>6.150103</ele>
        <time>2023-09-24T12:14:45.000Z</time>
      </trkpt>
      <trkpt lat="42.43437" lon="-8.641761">
        <ele>7.411008</ele>
        <time>2023-09-24T12:14:54.000Z</time>
      </trkpt>
      <trkpt lat="42.434326" lon="-8.641784">
        <ele>7.491614</ele>
        <time>2023-09-24T12:14:55.000Z</time>
      </trkpt>
      <trkpt lat="42.434291" lon="-8.641841">
        <ele>7.572036</ele>
        <time>2023-09-24T12:14:56.000Z</time>
      </trkpt>
      <trkpt lat="42.43421" lon="-8.641871">
        <ele>7.647202</ele>
        <time>2023-09-24T12:14:57.000Z</time>
      </trkpt>
      <trkpt lat="42.434202" lon="-8.641863">
        <ele>7.652052</ele>
        <time>2023-09-24T12:14:57.000Z</time>
      </trkpt>
      <trkpt lat="42.434184" lon="-8.641852">
        <ele>7.671188</ele>
        <time>2023-09-24T12:14:57.000Z</time>
      </trkpt>
      <trkpt lat="42.434135" lon="-8.641822">
        <ele>7.715143</ele>
        <time>2023-09-24T12:14:58.000Z</time>
      </trkpt>
      <trkpt lat="42.434097" lon="-8.64169">
        <ele>7.81837</ele>
        <time>2023-09-24T12:14:59.000Z</time>
      </trkpt>
      <trkpt lat="42.434091" lon="-8.641648">
        <ele>7.839144</ele>
        <time>2023-09-24T12:14:59.000Z</time>
      </trkpt>
      <trkpt lat="42.434107" lon="-8.641614">
        <ele>7.859123</ele>
        <time>2023-09-24T12:14:59.000Z</time>
      </trkpt>
      <trkpt lat="42.434085" lon="-8.641483">
        <ele>7.95731</ele>
        <time>2023-09-24T12:15:00.000Z</time>
      </trkpt>
      <trkpt lat="42.434061" lon="-8.641333">
        <ele>8.057421</ele>
        <time>2023-09-24T12:15:01.000Z</time>
      </trkpt>
      <trkpt lat="42.433856" lon="-8.640416">
        <ele>8.679705</ele>
        <time>2023-09-24T12:15:09.000Z</time>
      </trkpt>
      <trkpt lat="42.433832" lon="-8.640195">
        <ele>8.824194</ele>
        <time>2023-09-24T12:15:11.000Z</time>
      </trkpt>
      <trkpt lat="42.433698" lon="-8.639574">
        <ele>9.129375</ele>
        <time>2023-09-24T12:15:16.000Z</time>
      </trkpt>
      <trkpt lat="42.433685" lon="-8.639455">
        <ele>9.052507</ele>
        <time>2023-09-24T12:15:17.000Z</time>
      </trkpt>
      <trkpt lat="42.433392" lon="-8.638011">
        <ele>8.163292</ele>
        <time>2023-09-24T12:15:29.000Z</time>
      </trkpt>
      <trkpt lat="42.433304" lon="-8.637459">
        <ele>7.832017</ele>
        <time>2023-09-24T12:15:34.000Z</time>
      </trkpt>
      <trkpt lat="42.433269" lon="-8.637281">
        <ele>7.72755416019</ele>
        <time>2023-09-24T12:15:36.000Z</time>
      </trkpt>
      <trkpt lat="42.433267" lon="-8.637159">
        <ele>7.65835208588</ele>
        <time>2023-09-24T12:15:37.000Z</time>
      </trkpt>
      <trkpt lat="42.433237" lon="-8.636904">
        <ele>7.51191844255</ele>
        <time>2023-09-24T12:15:39.000Z</time>
      </trkpt>
      <trkpt lat="42.433253" lon="-8.63675">
        <ele>7.42372548294</ele>
        <time>2023-09-24T12:15:40.000Z</time>
      </trkpt>
      <trkpt lat="42.433229" lon="-8.63668">
        <ele>7.37995510325</ele>
        <time>2023-09-24T12:15:41.000Z</time>
      </trkpt>
      <trkpt lat="42.43322" lon="-8.636482">
        <ele>7.26745841924</ele>
        <time>2023-09-24T12:15:43.000Z</time>
      </trkpt>
      <trkpt lat="42.433169" lon="-8.636254">
        <ele>7.13235412832</ele>
        <time>2023-09-24T12:15:45.000Z</time>
      </trkpt>
      <trkpt lat="42.433103" lon="-8.636179">
        <ele>7.06616828652</ele>
        <time>2023-09-24T12:15:46.000Z</time>
      </trkpt>
      <trkpt lat="42.433058" lon="-8.636093">
        <ele>7.00638549492</ele>
        <time>2023-09-24T12:15:47.000Z</time>
      </trkpt>
      <trkpt lat="42.432621" lon="-8.635845">
        <ele>6.64235277755</ele>
        <time>2023-09-24T12:15:52.000Z</time>
      </trkpt>
      <trkpt lat="42.432383" lon="-8.635698">
        <ele>6.44138071459</ele>
        <time>2023-09-24T12:15:55.000Z</time>
      </trkpt>
      <trkpt lat="42.432142" lon="-8.635483">
        <ele>6.21967208436</ele>
        <time>2023-09-24T12:15:58.000Z</time>
      </trkpt>
    </trkseg>
  </trk>
</gpx>

<!--
Performance optimized by W3 Total Cache. Learn more: https://www.boldgrid.com/w3-total-cache/?utm_source=w3tc&utm_medium=footer_comment&utm_campaign=free_plugin

Page Caching using Disk: Enhanced{w3tc_pagecache_reject_reason} 

Served from: www.aquabike.world @ 2026-05-07 15:16:21 by W3 Total Cache
-->